<?xml version='1.0' encoding='UTF-8'?><gpx version="1.1" creator="JPX - https://github.com/jenetics/jpx" xmlns="http://www.topografix.com/GPX/1/1"><trk><trkseg><trkpt lat="45.4841784" lon="11.1808905"><ele>212.00000000000003</ele><time>2026-04-26T06:23:05.293Z</time></trkpt><trkpt lat="45.48415" lon="11.1807921"><ele>212.0</ele><time>2026-04-26T06:23:11.289Z</time></trkpt><trkpt lat="45.4840868" lon="11.1807863"><ele>212.0</ele><time>2026-04-26T06:23:16.269Z</time></trkpt><trkpt lat="45.4840358" lon="11.1808416"><ele>212.0</ele><time>2026-04-26T06:23:21.288Z</time></trkpt><trkpt lat="45.4840272" lon="11.1809469"><ele>212.00000000000003</ele><time>2026-04-26T06:23:48.286Z</time></trkpt><trkpt lat="45.4840415" lon="11.1810565"><ele>212.0</ele><time>2026-04-26T06:23:50.286Z</time></trkpt><trkpt lat="45.4840702" lon="11.1811883"><ele>212.0</ele><time>2026-04-26T06:23:52.295Z</time></trkpt><trkpt lat="45.4841067" lon="11.1813322"><ele>212.0</ele><time>2026-04-26T06:23:54.298Z</time></trkpt><trkpt lat="45.4841494" lon="11.1814763"><ele>212.0</ele><time>2026-04-26T06:23:56.286Z</time></trkpt><trkpt lat="45.4841838" lon="11.1816227"><ele>212.0</ele><time>2026-04-26T06:23:58.278Z</time></trkpt><trkpt lat="45.4841443" lon="11.1817647"><ele>212.0</ele><time>2026-04-26T06:24:00.289Z</time></trkpt><trkpt lat="45.484054" lon="11.1818388"><ele>212.25</ele><time>2026-04-26T06:24:02.294Z</time></trkpt><trkpt lat="45.4839453" lon="11.1818975"><ele>212.5</ele><time>2026-04-26T06:24:04.286Z</time></trkpt><trkpt lat="45.4838312" lon="11.1819494"><ele>212.75</ele><time>2026-04-26T06:24:06.297Z</time></trkpt><trkpt lat="45.4837131" lon="11.181997"><ele>213.0</ele><time>2026-04-26T06:24:08.283Z</time></trkpt><trkpt lat="45.4835877" lon="11.1820575"><ele>212.4</ele><time>2026-04-26T06:24:10.285Z</time></trkpt><trkpt lat="45.4834827" lon="11.1821068"><ele>211.8</ele><time>2026-04-26T06:24:12.292Z</time></trkpt><trkpt lat="45.4833965" lon="11.1821979"><ele>211.2</ele><time>2026-04-26T06:24:14.286Z</time></trkpt><trkpt lat="45.4833815" lon="11.1823473"><ele>210.6</ele><time>2026-04-26T06:24:16.286Z</time></trkpt><trkpt lat="45.4834094" lon="11.1824942"><ele>210.0</ele><time>2026-04-26T06:24:18.28Z</time></trkpt><trkpt lat="45.4834423" lon="11.1826401"><ele>209.75</ele><time>2026-04-26T06:24:20.282Z</time></trkpt><trkpt lat="45.483483" lon="11.1827923"><ele>209.5</ele><time>2026-04-26T06:24:22.285Z</time></trkpt><trkpt lat="45.4834574" lon="11.1829405"><ele>209.25</ele><time>2026-04-26T06:24:24.292Z</time></trkpt><trkpt lat="45.4833548" lon="11.1830142"><ele>209.0</ele><time>2026-04-26T06:24:26.283Z</time></trkpt><trkpt lat="45.4832365" lon="11.1830539"><ele>209.00000000000003</ele><time>2026-04-26T06:24:28.284Z</time></trkpt><trkpt lat="45.4831108" lon="11.1830988"><ele>209.0</ele><time>2026-04-26T06:24:30.284Z</time></trkpt><trkpt lat="45.483048" lon="11.1831143"><ele>209.0</ele><time>2026-04-26T06:24:31.282Z</time></trkpt><trkpt lat="45.4829857" lon="11.18313"><ele>209.0</ele><time>2026-04-26T06:24:32.283Z</time></trkpt><trkpt lat="45.4828678" lon="11.183144"><ele>209.00000000000003</ele><time>2026-04-26T06:24:34.284Z</time></trkpt><trkpt lat="45.482805" lon="11.1831539"><ele>209.0</ele><time>2026-04-26T06:24:35.281Z</time></trkpt><trkpt lat="45.4826823" lon="11.1831736"><ele>208.6</ele><time>2026-04-26T06:24:37.282Z</time></trkpt><trkpt lat="45.4825676" lon="11.1832055"><ele>208.2</ele><time>2026-04-26T06:24:39.282Z</time></trkpt><trkpt lat="45.4824671" lon="11.1832274"><ele>207.79999999999998</ele><time>2026-04-26T06:24:41.289Z</time></trkpt><trkpt lat="45.4824002" lon="11.1832853"><ele>207.39999999999998</ele><time>2026-04-26T06:24:45.296Z</time></trkpt><trkpt lat="45.4823861" lon="11.1833856"><ele>207.0</ele><time>2026-04-26T06:24:47.296Z</time></trkpt><trkpt lat="45.4823916" lon="11.1835076"><ele>207.0</ele><time>2026-04-26T06:24:49.282Z</time></trkpt><trkpt lat="45.4823946" lon="11.183643"><ele>207.0</ele><time>2026-04-26T06:24:51.287Z</time></trkpt><trkpt lat="45.4824053" lon="11.1837879"><ele>207.0</ele><time>2026-04-26T06:24:53.293Z</time></trkpt><trkpt lat="45.4824075" lon="11.1839331"><ele>207.0</ele><time>2026-04-26T06:24:55.285Z</time></trkpt><trkpt lat="45.4824423" lon="11.1840581"><ele>207.0</ele><time>2026-04-26T06:24:57.286Z</time></trkpt><trkpt lat="45.4825456" lon="11.1840912"><ele>206.8</ele><time>2026-04-26T06:24:59.293Z</time></trkpt><trkpt lat="45.4826438" lon="11.184114"><ele>206.6</ele><time>2026-04-26T06:25:01.328Z</time></trkpt><trkpt lat="45.4827356" lon="11.184145"><ele>206.4</ele><time>2026-04-26T06:25:03.289Z</time></trkpt><trkpt lat="45.4828309" lon="11.1841957"><ele>206.20000000000002</ele><time>2026-04-26T06:25:05.283Z</time></trkpt><trkpt lat="45.4829519" lon="11.1842486"><ele>206.0</ele><time>2026-04-26T06:25:07.282Z</time></trkpt><trkpt lat="45.483018" lon="11.1842781"><ele>206.28571428571428</ele><time>2026-04-26T06:25:08.288Z</time></trkpt><trkpt lat="45.4830866" lon="11.1843062"><ele>206.57142857142856</ele><time>2026-04-26T06:25:09.281Z</time></trkpt><trkpt lat="45.4831531" lon="11.1843377"><ele>206.85714285714283</ele><time>2026-04-26T06:25:10.285Z</time></trkpt><trkpt lat="45.4832191" lon="11.1843725"><ele>207.14285714285714</ele><time>2026-04-26T06:25:11.283Z</time></trkpt><trkpt lat="45.4832856" lon="11.1844073"><ele>207.42857142857144</ele><time>2026-04-26T06:25:12.285Z</time></trkpt><trkpt lat="45.4833524" lon="11.1844383"><ele>207.7142857142857</ele><time>2026-04-26T06:25:13.291Z</time></trkpt><trkpt lat="45.4834193" lon="11.1844703"><ele>208.0</ele><time>2026-04-26T06:25:14.294Z</time></trkpt><trkpt lat="45.4834899" lon="11.1845005"><ele>208.0</ele><time>2026-04-26T06:25:15.28Z</time></trkpt><trkpt lat="45.4835588" lon="11.1845322"><ele>208.0</ele><time>2026-04-26T06:25:16.298Z</time></trkpt><trkpt lat="45.4836278" lon="11.1845646"><ele>208.0</ele><time>2026-04-26T06:25:17.281Z</time></trkpt><trkpt lat="45.4836991" lon="11.1845962"><ele>208.0</ele><time>2026-04-26T06:25:18.294Z</time></trkpt><trkpt lat="45.4837697" lon="11.1846272"><ele>208.0</ele><time>2026-04-26T06:25:19.298Z</time></trkpt><trkpt lat="45.4838378" lon="11.1846609"><ele>208.0</ele><time>2026-04-26T06:25:20.29Z</time></trkpt><trkpt lat="45.4839093" lon="11.1846925"><ele>208.0</ele><time>2026-04-26T06:25:21.292Z</time></trkpt><trkpt lat="45.4839823" lon="11.1847172"><ele>208.14285714285714</ele><time>2026-04-26T06:25:22.291Z</time></trkpt><trkpt lat="45.4840511" lon="11.1847476"><ele>208.2857142857143</ele><time>2026-04-26T06:25:23.286Z</time></trkpt><trkpt lat="45.4841202" lon="11.184779"><ele>208.42857142857144</ele><time>2026-04-26T06:25:24.288Z</time></trkpt><trkpt lat="45.4841879" lon="11.1848041"><ele>208.57142857142856</ele><time>2026-04-26T06:25:25.279Z</time></trkpt><trkpt lat="45.4842588" lon="11.184829"><ele>208.71428571428572</ele><time>2026-04-26T06:25:26.286Z</time></trkpt><trkpt lat="45.4843253" lon="11.1848558"><ele>208.85714285714286</ele><time>2026-04-26T06:25:27.291Z</time></trkpt><trkpt lat="45.4843884" lon="11.1848817"><ele>209.0</ele><time>2026-04-26T06:25:28.282Z</time></trkpt><trkpt lat="45.4844514" lon="11.1849095"><ele>209.0</ele><time>2026-04-26T06:25:29.293Z</time></trkpt><trkpt lat="45.4845148" lon="11.1849387"><ele>209.0</ele><time>2026-04-26T06:25:30.293Z</time></trkpt><trkpt lat="45.4845781" lon="11.1849639"><ele>209.0</ele><time>2026-04-26T06:25:31.286Z</time></trkpt><trkpt lat="45.4846412" lon="11.1849862"><ele>209.0</ele><time>2026-04-26T06:25:32.286Z</time></trkpt><trkpt lat="45.4847079" lon="11.185009"><ele>209.0</ele><time>2026-04-26T06:25:33.286Z</time></trkpt><trkpt lat="45.4847741" lon="11.1850444"><ele>209.0</ele><time>2026-04-26T06:25:34.283Z</time></trkpt><trkpt lat="45.4848409" lon="11.1850763"><ele>209.0</ele><time>2026-04-26T06:25:35.288Z</time></trkpt><trkpt lat="45.4849067" lon="11.1851076"><ele>209.0</ele><time>2026-04-26T06:25:36.282Z</time></trkpt><trkpt lat="45.4849703" lon="11.1851399"><ele>209.0</ele><time>2026-04-26T06:25:37.287Z</time></trkpt><trkpt lat="45.4850326" lon="11.1851703"><ele>209.0</ele><time>2026-04-26T06:25:38.286Z</time></trkpt><trkpt lat="45.485096" lon="11.1851983"><ele>209.0</ele><time>2026-04-26T06:25:39.283Z</time></trkpt><trkpt lat="45.4851598" lon="11.1852236"><ele>209.0</ele><time>2026-04-26T06:25:40.285Z</time></trkpt><trkpt lat="45.4852214" lon="11.1852507"><ele>209.0</ele><time>2026-04-26T06:25:41.293Z</time></trkpt><trkpt lat="45.4852829" lon="11.185278"><ele>209.0</ele><time>2026-04-26T06:25:42.294Z</time></trkpt><trkpt lat="45.4853469" lon="11.185304"><ele>209.33333333333334</ele><time>2026-04-26T06:25:43.295Z</time></trkpt><trkpt lat="45.4854654" lon="11.1853566"><ele>209.66666666666669</ele><time>2026-04-26T06:25:45.294Z</time></trkpt><trkpt lat="45.4855282" lon="11.1853801"><ele>210.0</ele><time>2026-04-26T06:25:46.283Z</time></trkpt><trkpt lat="45.4856495" lon="11.1854324"><ele>210.33333333333331</ele><time>2026-04-26T06:25:48.287Z</time></trkpt><trkpt lat="45.4857118" lon="11.1854592"><ele>210.66666666666666</ele><time>2026-04-26T06:25:49.284Z</time></trkpt><trkpt lat="45.485773" lon="11.185486"><ele>211.0</ele><time>2026-04-26T06:25:50.284Z</time></trkpt><trkpt lat="45.4858334" lon="11.1855127"><ele>211.0</ele><time>2026-04-26T06:25:51.297Z</time></trkpt><trkpt lat="45.4858945" lon="11.1855382"><ele>211.0</ele><time>2026-04-26T06:25:52.292Z</time></trkpt><trkpt lat="45.4860118" lon="11.1855976"><ele>211.0</ele><time>2026-04-26T06:25:54.295Z</time></trkpt><trkpt lat="45.4860737" lon="11.1856236"><ele>211.0</ele><time>2026-04-26T06:25:55.293Z</time></trkpt><trkpt lat="45.4861846" lon="11.1856885"><ele>211.0</ele><time>2026-04-26T06:25:57.285Z</time></trkpt><trkpt lat="45.4862911" lon="11.1857595"><ele>212.5</ele><time>2026-04-26T06:25:59.284Z</time></trkpt><trkpt lat="45.4864" lon="11.1858313"><ele>214.0</ele><time>2026-04-26T06:26:01.294Z</time></trkpt><trkpt lat="45.4865012" lon="11.1858934"><ele>215.5</ele><time>2026-04-26T06:26:03.283Z</time></trkpt><trkpt lat="45.4865945" lon="11.1859849"><ele>217.0</ele><time>2026-04-26T06:26:05.295Z</time></trkpt><trkpt lat="45.4866762" lon="11.1860831"><ele>217.0</ele><time>2026-04-26T06:26:07.292Z</time></trkpt><trkpt lat="45.4867525" lon="11.186195"><ele>217.0</ele><time>2026-04-26T06:26:09.284Z</time></trkpt><trkpt lat="45.4867946" lon="11.1863179"><ele>217.0</ele><time>2026-04-26T06:26:11.287Z</time></trkpt><trkpt lat="45.4868214" lon="11.1864511"><ele>217.0</ele><time>2026-04-26T06:26:13.293Z</time></trkpt><trkpt lat="45.4868493" lon="11.1865858"><ele>217.0</ele><time>2026-04-26T06:26:15.291Z</time></trkpt><trkpt lat="45.4868797" lon="11.186746"><ele>217.25</ele><time>2026-04-26T06:26:17.285Z</time></trkpt><trkpt lat="45.4869174" lon="11.1869136"><ele>217.5</ele><time>2026-04-26T06:26:19.284Z</time></trkpt><trkpt lat="45.4869629" lon="11.1870725"><ele>217.75</ele><time>2026-04-26T06:26:21.283Z</time></trkpt><trkpt lat="45.4870056" lon="11.1872222"><ele>218.0</ele><time>2026-04-26T06:26:23.282Z</time></trkpt><trkpt lat="45.4870448" lon="11.1873646"><ele>217.2</ele><time>2026-04-26T06:26:25.286Z</time></trkpt><trkpt lat="45.4870843" lon="11.187512"><ele>216.4</ele><time>2026-04-26T06:26:27.285Z</time></trkpt><trkpt lat="45.487111" lon="11.1876627"><ele>215.59999999999997</ele><time>2026-04-26T06:26:29.284Z</time></trkpt><trkpt lat="45.4871278" lon="11.187806"><ele>214.79999999999998</ele><time>2026-04-26T06:26:31.441Z</time></trkpt><trkpt lat="45.487134" lon="11.1879429"><ele>214.0</ele><time>2026-04-26T06:26:33.296Z</time></trkpt><trkpt lat="45.487136" lon="11.1880793"><ele>219.39999999999998</ele><time>2026-04-26T06:26:35.285Z</time></trkpt><trkpt lat="45.4871342" lon="11.1882211"><ele>224.79999999999998</ele><time>2026-04-26T06:26:37.281Z</time></trkpt><trkpt lat="45.4871433" lon="11.1883534"><ele>230.20000000000002</ele><time>2026-04-26T06:26:39.291Z</time></trkpt><trkpt lat="45.4871625" lon="11.1884823"><ele>235.60000000000002</ele><time>2026-04-26T06:26:41.284Z</time></trkpt><trkpt lat="45.4871854" lon="11.1886097"><ele>241.0</ele><time>2026-04-26T06:26:43.298Z</time></trkpt><trkpt lat="45.4872119" lon="11.1887268"><ele>240.99999999999997</ele><time>2026-04-26T06:26:45.291Z</time></trkpt><trkpt lat="45.4872486" lon="11.1888336"><ele>241.0</ele><time>2026-04-26T06:26:47.287Z</time></trkpt><trkpt lat="45.4872915" lon="11.1889367"><ele>241.0</ele><time>2026-04-26T06:26:49.295Z</time></trkpt><trkpt lat="45.487332" lon="11.1890441"><ele>241.0</ele><time>2026-04-26T06:26:51.287Z</time></trkpt><trkpt lat="45.4873678" lon="11.1891482"><ele>240.99999999999997</ele><time>2026-04-26T06:26:53.294Z</time></trkpt><trkpt lat="45.4874009" lon="11.1892569"><ele>241.0</ele><time>2026-04-26T06:26:55.294Z</time></trkpt><trkpt lat="45.4874317" lon="11.1893627"><ele>240.71428571428572</ele><time>2026-04-26T06:26:57.286Z</time></trkpt><trkpt lat="45.4874579" lon="11.1894704"><ele>240.42857142857144</ele><time>2026-04-26T06:26:59.294Z</time></trkpt><trkpt lat="45.487482" lon="11.1895708"><ele>240.14285714285717</ele><time>2026-04-26T06:27:01.299Z</time></trkpt><trkpt lat="45.4875032" lon="11.1896699"><ele>239.8571428571429</ele><time>2026-04-26T06:27:03.288Z</time></trkpt><trkpt lat="45.4875306" lon="11.1897705"><ele>239.57142857142858</ele><time>2026-04-26T06:27:05.287Z</time></trkpt><trkpt lat="45.4875641" lon="11.1898649"><ele>239.28571428571433</ele><time>2026-04-26T06:27:07.295Z</time></trkpt><trkpt lat="45.4875879" lon="11.1899529"><ele>239.00000000000003</ele><time>2026-04-26T06:27:11.286Z</time></trkpt><trkpt lat="45.4876312" lon="11.1900654"><ele>238.50000000000003</ele><time>2026-04-26T06:27:15.282Z</time></trkpt><trkpt lat="45.4876818" lon="11.1901602"><ele>238.0</ele><time>2026-04-26T06:27:17.287Z</time></trkpt><trkpt lat="45.4877385" lon="11.1902558"><ele>237.5</ele><time>2026-04-26T06:27:19.287Z</time></trkpt><trkpt lat="45.487798" lon="11.1903454"><ele>237.0</ele><time>2026-04-26T06:27:21.28Z</time></trkpt><trkpt lat="45.4878539" lon="11.1904402"><ele>236.50000000000003</ele><time>2026-04-26T06:27:23.296Z</time></trkpt><trkpt lat="45.4879129" lon="11.1905283"><ele>236.0</ele><time>2026-04-26T06:27:25.301Z</time></trkpt><trkpt lat="45.4879763" lon="11.190607"><ele>238.00000000000003</ele><time>2026-04-26T06:27:27.306Z</time></trkpt><trkpt lat="45.4880403" lon="11.1906753"><ele>240.0</ele><time>2026-04-26T06:27:29.288Z</time></trkpt><trkpt lat="45.4881135" lon="11.190754"><ele>242.0</ele><time>2026-04-26T06:27:30.287Z</time></trkpt><trkpt lat="45.488175" lon="11.190808"><ele>244.0</ele><time>2026-04-26T06:27:32.28Z</time></trkpt><trkpt lat="45.4882356" lon="11.1908628"><ele>246.00000000000003</ele><time>2026-04-26T06:27:34.297Z</time></trkpt><trkpt lat="45.4882991" lon="11.1909121"><ele>248.0</ele><time>2026-04-26T06:27:36.292Z</time></trkpt><trkpt lat="45.488359" lon="11.1909527"><ele>248.0</ele><time>2026-04-26T06:27:38.286Z</time></trkpt><trkpt lat="45.488423" lon="11.1909837"><ele>248.00000000000003</ele><time>2026-04-26T06:27:40.288Z</time></trkpt><trkpt lat="45.4884866" lon="11.1910085"><ele>248.0</ele><time>2026-04-26T06:27:42.286Z</time></trkpt><trkpt lat="45.4885781" lon="11.1910155"><ele>248.0</ele><time>2026-04-26T06:27:45.284Z</time></trkpt><trkpt lat="45.4886435" lon="11.1910236"><ele>248.00000000000003</ele><time>2026-04-26T06:27:47.285Z</time></trkpt><trkpt lat="45.4887138" lon="11.1910309"><ele>248.0</ele><time>2026-04-26T06:27:49.291Z</time></trkpt><trkpt lat="45.4887812" lon="11.1910285"><ele>248.0</ele><time>2026-04-26T06:27:51.286Z</time></trkpt><trkpt lat="45.4888665" lon="11.1910191"><ele>250.16666666666669</ele><time>2026-04-26T06:27:54.299Z</time></trkpt><trkpt lat="45.488952" lon="11.191001"><ele>252.33333333333334</ele><time>2026-04-26T06:27:57.285Z</time></trkpt><trkpt lat="45.4890379" lon="11.1909807"><ele>254.5</ele><time>2026-04-26T06:28:00.29Z</time></trkpt><trkpt lat="45.4891236" lon="11.1909502"><ele>256.6666666666667</ele><time>2026-04-26T06:28:03.287Z</time></trkpt><trkpt lat="45.4892015" lon="11.1909189"><ele>258.8333333333333</ele><time>2026-04-26T06:28:06.286Z</time></trkpt><trkpt lat="45.4892882" lon="11.1908839"><ele>261.0</ele><time>2026-04-26T06:28:09.284Z</time></trkpt><trkpt lat="45.4893488" lon="11.1908555"><ele>261.0</ele><time>2026-04-26T06:28:11.287Z</time></trkpt><trkpt lat="45.4894102" lon="11.1908221"><ele>261.0</ele><time>2026-04-26T06:28:13.284Z</time></trkpt><trkpt lat="45.4894732" lon="11.1908015"><ele>261.0</ele><time>2026-04-26T06:28:15.286Z</time></trkpt><trkpt lat="45.4895401" lon="11.1907828"><ele>261.0</ele><time>2026-04-26T06:28:17.3Z</time></trkpt><trkpt lat="45.4896066" lon="11.1907707"><ele>261.0</ele><time>2026-04-26T06:28:19.287Z</time></trkpt><trkpt lat="45.4896791" lon="11.1907585"><ele>261.0</ele><time>2026-04-26T06:28:21.29Z</time></trkpt><trkpt lat="45.4897553" lon="11.1907387"><ele>261.0</ele><time>2026-04-26T06:28:23.293Z</time></trkpt><trkpt lat="45.4898333" lon="11.190727"><ele>262.8333333333333</ele><time>2026-04-26T06:28:25.286Z</time></trkpt><trkpt lat="45.4899096" lon="11.1907828"><ele>264.6666666666667</ele><time>2026-04-26T06:28:27.299Z</time></trkpt><trkpt lat="45.4899146" lon="11.1909192"><ele>266.5</ele><time>2026-04-26T06:28:29.286Z</time></trkpt><trkpt lat="45.489856" lon="11.190959"><ele>268.33333333333337</ele><time>2026-04-26T06:28:30.296Z</time></trkpt><trkpt lat="45.4897667" lon="11.1910141"><ele>270.1666666666667</ele><time>2026-04-26T06:28:32.285Z</time></trkpt><trkpt lat="45.4896971" lon="11.1910972"><ele>272.0</ele><time>2026-04-26T06:28:34.284Z</time></trkpt><trkpt lat="45.4896294" lon="11.1911884"><ele>269.8</ele><time>2026-04-26T06:28:36.281Z</time></trkpt><trkpt lat="45.4895835" lon="11.1913305"><ele>267.6</ele><time>2026-04-26T06:28:38.283Z</time></trkpt><trkpt lat="45.4895452" lon="11.1914542"><ele>265.40000000000003</ele><time>2026-04-26T06:28:40.292Z</time></trkpt><trkpt lat="45.4895132" lon="11.191593"><ele>263.2</ele><time>2026-04-26T06:28:42.285Z</time></trkpt><trkpt lat="45.4894762" lon="11.1917422"><ele>261.0</ele><time>2026-04-26T06:28:44.283Z</time></trkpt><trkpt lat="45.4894142" lon="11.1918613"><ele>260.40000000000003</ele><time>2026-04-26T06:28:46.286Z</time></trkpt><trkpt lat="45.4893629" lon="11.1919858"><ele>259.8</ele><time>2026-04-26T06:28:48.285Z</time></trkpt><trkpt lat="45.4893158" lon="11.1921131"><ele>259.20000000000005</ele><time>2026-04-26T06:28:50.291Z</time></trkpt><trkpt lat="45.489278" lon="11.1922366"><ele>258.6</ele><time>2026-04-26T06:28:52.283Z</time></trkpt><trkpt lat="45.489253" lon="11.1923753"><ele>258.0</ele><time>2026-04-26T06:28:54.287Z</time></trkpt><trkpt lat="45.4892322" lon="11.1925112"><ele>258.0</ele><time>2026-04-26T06:28:56.284Z</time></trkpt><trkpt lat="45.489211" lon="11.192641"><ele>258.0</ele><time>2026-04-26T06:28:58.29Z</time></trkpt><trkpt lat="45.4891977" lon="11.1927746"><ele>258.0</ele><time>2026-04-26T06:29:00.289Z</time></trkpt><trkpt lat="45.4891916" lon="11.1928836"><ele>258.0</ele><time>2026-04-26T06:29:02.293Z</time></trkpt><trkpt lat="45.4892333" lon="11.1929554"><ele>258.0</ele><time>2026-04-26T06:29:04.284Z</time></trkpt><trkpt lat="45.4893123" lon="11.1929519"><ele>258.0</ele><time>2026-04-26T06:29:06.281Z</time></trkpt><trkpt lat="45.4893857" lon="11.1929262"><ele>257.99999999999994</ele><time>2026-04-26T06:29:08.283Z</time></trkpt><trkpt lat="45.4894591" lon="11.1929109"><ele>258.0</ele><time>2026-04-26T06:29:10.289Z</time></trkpt><trkpt lat="45.4895274" lon="11.1928937"><ele>258.0</ele><time>2026-04-26T06:29:12.283Z</time></trkpt><trkpt lat="45.4895961" lon="11.1929048"><ele>258.0</ele><time>2026-04-26T06:29:14.285Z</time></trkpt><trkpt lat="45.4896652" lon="11.1929154"><ele>258.0</ele><time>2026-04-26T06:29:16.288Z</time></trkpt><trkpt lat="45.4897337" lon="11.1929299"><ele>257.99999999999994</ele><time>2026-04-26T06:29:18.285Z</time></trkpt><trkpt lat="45.4898015" lon="11.1929474"><ele>258.0</ele><time>2026-04-26T06:29:20.281Z</time></trkpt><trkpt lat="45.4898721" lon="11.1929594"><ele>261.3333333333333</ele><time>2026-04-26T06:29:22.281Z</time></trkpt><trkpt lat="45.4899437" lon="11.1929666"><ele>264.6666666666667</ele><time>2026-04-26T06:29:24.284Z</time></trkpt><trkpt lat="45.4900093" lon="11.1929714"><ele>268.0</ele><time>2026-04-26T06:29:26.282Z</time></trkpt><trkpt lat="45.4901013" lon="11.1929878"><ele>271.33333333333337</ele><time>2026-04-26T06:29:29.285Z</time></trkpt><trkpt lat="45.4901912" lon="11.1930036"><ele>274.6666666666667</ele><time>2026-04-26T06:29:32.291Z</time></trkpt><trkpt lat="45.4902807" lon="11.1930292"><ele>278.0</ele><time>2026-04-26T06:29:35.287Z</time></trkpt><trkpt lat="45.4903449" lon="11.1930392"><ele>280.83333333333337</ele><time>2026-04-26T06:29:37.287Z</time></trkpt><trkpt lat="45.4904324" lon="11.1930557"><ele>283.6666666666667</ele><time>2026-04-26T06:29:40.289Z</time></trkpt><trkpt lat="45.4905258" lon="11.1930566"><ele>286.5</ele><time>2026-04-26T06:29:43.284Z</time></trkpt><trkpt lat="45.4906141" lon="11.1930693"><ele>289.3333333333333</ele><time>2026-04-26T06:29:46.283Z</time></trkpt><trkpt lat="45.4907029" lon="11.1930854"><ele>292.16666666666663</ele><time>2026-04-26T06:29:49.284Z</time></trkpt><trkpt lat="45.49079" lon="11.1931082"><ele>295.0</ele><time>2026-04-26T06:29:52.286Z</time></trkpt><trkpt lat="45.4908838" lon="11.1931252"><ele>295.0</ele><time>2026-04-26T06:29:55.285Z</time></trkpt><trkpt lat="45.4909706" lon="11.1931359"><ele>295.0</ele><time>2026-04-26T06:29:58.283Z</time></trkpt><trkpt lat="45.491063" lon="11.1931373"><ele>295.0</ele><time>2026-04-26T06:30:01.285Z</time></trkpt><trkpt lat="45.4911578" lon="11.1931405"><ele>295.0</ele><time>2026-04-26T06:30:04.28Z</time></trkpt><trkpt lat="45.491227" lon="11.1931473"><ele>295.0</ele><time>2026-04-26T06:30:06.287Z</time></trkpt><trkpt lat="45.491292" lon="11.1931615"><ele>295.0</ele><time>2026-04-26T06:30:08.286Z</time></trkpt><trkpt lat="45.4913603" lon="11.1931749"><ele>294.00000000000006</ele><time>2026-04-26T06:30:10.288Z</time></trkpt><trkpt lat="45.4914319" lon="11.1931897"><ele>293.0</ele><time>2026-04-26T06:30:12.283Z</time></trkpt><trkpt lat="45.4914981" lon="11.1932087"><ele>292.0</ele><time>2026-04-26T06:30:14.286Z</time></trkpt><trkpt lat="45.4915647" lon="11.1932228"><ele>291.0</ele><time>2026-04-26T06:30:16.288Z</time></trkpt><trkpt lat="45.4916325" lon="11.1932416"><ele>290.0</ele><time>2026-04-26T06:30:18.286Z</time></trkpt><trkpt lat="45.4916982" lon="11.1932671"><ele>289.00000000000006</ele><time>2026-04-26T06:30:20.296Z</time></trkpt><trkpt lat="45.4917596" lon="11.1932968"><ele>288.0</ele><time>2026-04-26T06:30:22.285Z</time></trkpt><trkpt lat="45.491823" lon="11.1933204"><ele>288.0</ele><time>2026-04-26T06:30:24.283Z</time></trkpt><trkpt lat="45.4918885" lon="11.1933447"><ele>288.0</ele><time>2026-04-26T06:30:26.284Z</time></trkpt><trkpt lat="45.4919535" lon="11.1933731"><ele>288.0</ele><time>2026-04-26T06:30:28.282Z</time></trkpt><trkpt lat="45.4920209" lon="11.1933925"><ele>288.0</ele><time>2026-04-26T06:30:30.288Z</time></trkpt><trkpt lat="45.4920866" lon="11.193412"><ele>288.0</ele><time>2026-04-26T06:30:32.285Z</time></trkpt><trkpt lat="45.4921766" lon="11.1934253"><ele>288.0</ele><time>2026-04-26T06:30:35.286Z</time></trkpt><trkpt lat="45.4922999" lon="11.1934316"><ele>290.00000000000006</ele><time>2026-04-26T06:30:39.28Z</time></trkpt><trkpt lat="45.4923649" lon="11.1934261"><ele>292.0</ele><time>2026-04-26T06:30:41.287Z</time></trkpt><trkpt lat="45.4924327" lon="11.1934189"><ele>294.0</ele><time>2026-04-26T06:30:43.285Z</time></trkpt><trkpt lat="45.4925" lon="11.1934143"><ele>296.0</ele><time>2026-04-26T06:30:45.282Z</time></trkpt><trkpt lat="45.4925655" lon="11.1934161"><ele>298.0</ele><time>2026-04-26T06:30:47.287Z</time></trkpt><trkpt lat="45.4926308" lon="11.1934163"><ele>300.00000000000006</ele><time>2026-04-26T06:30:49.283Z</time></trkpt><trkpt lat="45.4927235" lon="11.1934159"><ele>302.0</ele><time>2026-04-26T06:30:52.282Z</time></trkpt><trkpt lat="45.4927882" lon="11.1934115"><ele>302.0</ele><time>2026-04-26T06:30:54.289Z</time></trkpt><trkpt lat="45.4928821" lon="11.1934107"><ele>302.0</ele><time>2026-04-26T06:30:57.285Z</time></trkpt><trkpt lat="45.4929457" lon="11.1934055"><ele>302.0</ele><time>2026-04-26T06:30:59.285Z</time></trkpt><trkpt lat="45.4930396" lon="11.1933995"><ele>302.0</ele><time>2026-04-26T06:31:02.285Z</time></trkpt><trkpt lat="45.4931307" lon="11.1933904"><ele>302.0</ele><time>2026-04-26T06:31:05.282Z</time></trkpt><trkpt lat="45.4931936" lon="11.1933843"><ele>302.0</ele><time>2026-04-26T06:31:07.288Z</time></trkpt><trkpt lat="45.4932693" lon="11.1933826"><ele>302.83333333333337</ele><time>2026-04-26T06:31:09.281Z</time></trkpt><trkpt lat="45.493357" lon="11.1933846"><ele>303.6666666666667</ele><time>2026-04-26T06:31:11.281Z</time></trkpt><trkpt lat="45.4934458" lon="11.1933868"><ele>304.5</ele><time>2026-04-26T06:31:13.287Z</time></trkpt><trkpt lat="45.4935365" lon="11.1933835"><ele>305.3333333333333</ele><time>2026-04-26T06:31:15.284Z</time></trkpt><trkpt lat="45.4936238" lon="11.1933813"><ele>306.16666666666663</ele><time>2026-04-26T06:31:17.284Z</time></trkpt><trkpt lat="45.493708" lon="11.1933822"><ele>307.0</ele><time>2026-04-26T06:31:19.284Z</time></trkpt><trkpt lat="45.4937935" lon="11.193371"><ele>307.16666666666663</ele><time>2026-04-26T06:31:21.292Z</time></trkpt><trkpt lat="45.4938779" lon="11.1933493"><ele>307.3333333333333</ele><time>2026-04-26T06:31:23.288Z</time></trkpt><trkpt lat="45.4939595" lon="11.1933218"><ele>307.5</ele><time>2026-04-26T06:31:25.288Z</time></trkpt><trkpt lat="45.4940392" lon="11.1932937"><ele>307.6666666666667</ele><time>2026-04-26T06:31:27.285Z</time></trkpt><trkpt lat="45.4941123" lon="11.1932713"><ele>307.83333333333337</ele><time>2026-04-26T06:31:29.286Z</time></trkpt><trkpt lat="45.4941824" lon="11.1932534"><ele>308.0</ele><time>2026-04-26T06:31:31.295Z</time></trkpt><trkpt lat="45.4942518" lon="11.193243"><ele>308.0</ele><time>2026-04-26T06:31:33.292Z</time></trkpt><trkpt lat="45.4943189" lon="11.193236"><ele>308.0</ele><time>2026-04-26T06:31:35.289Z</time></trkpt><trkpt lat="45.4943927" lon="11.1932229"><ele>308.0</ele><time>2026-04-26T06:31:37.285Z</time></trkpt><trkpt lat="45.4944635" lon="11.1932164"><ele>308.0</ele><time>2026-04-26T06:31:39.286Z</time></trkpt><trkpt lat="45.4945322" lon="11.1932356"><ele>308.0</ele><time>2026-04-26T06:31:41.284Z</time></trkpt><trkpt lat="45.4946001" lon="11.19326"><ele>308.0</ele><time>2026-04-26T06:31:43.291Z</time></trkpt><trkpt lat="45.4946648" lon="11.19328"><ele>308.0</ele><time>2026-04-26T06:31:45.286Z</time></trkpt><trkpt lat="45.4947392" lon="11.1932898"><ele>309.0</ele><time>2026-04-26T06:31:47.29Z</time></trkpt><trkpt lat="45.4948116" lon="11.1932845"><ele>310.0</ele><time>2026-04-26T06:31:49.283Z</time></trkpt><trkpt lat="45.4948901" lon="11.1932873"><ele>311.0</ele><time>2026-04-26T06:31:51.286Z</time></trkpt><trkpt lat="45.4949723" lon="11.1932898"><ele>312.0</ele><time>2026-04-26T06:31:53.293Z</time></trkpt><trkpt lat="45.4950548" lon="11.1932976"><ele>313.0</ele><time>2026-04-26T06:31:55.288Z</time></trkpt><trkpt lat="45.4951383" lon="11.1933191"><ele>314.0</ele><time>2026-04-26T06:31:57.29Z</time></trkpt><trkpt lat="45.4952224" lon="11.1933405"><ele>314.0</ele><time>2026-04-26T06:31:59.286Z</time></trkpt><trkpt lat="45.4953043" lon="11.1933567"><ele>314.0</ele><time>2026-04-26T06:32:01.29Z</time></trkpt><trkpt lat="45.4953826" lon="11.1933779"><ele>314.0</ele><time>2026-04-26T06:32:03.29Z</time></trkpt><trkpt lat="45.4954658" lon="11.1933986"><ele>314.0</ele><time>2026-04-26T06:32:05.285Z</time></trkpt><trkpt lat="45.4955414" lon="11.1934233"><ele>314.0</ele><time>2026-04-26T06:32:07.29Z</time></trkpt><trkpt lat="45.4956225" lon="11.1934514"><ele>314.0</ele><time>2026-04-26T06:32:09.291Z</time></trkpt><trkpt lat="45.4957071" lon="11.1934676"><ele>315.79999999999995</ele><time>2026-04-26T06:32:11.29Z</time></trkpt><trkpt lat="45.4957979" lon="11.1934709"><ele>317.59999999999997</ele><time>2026-04-26T06:32:13.384Z</time></trkpt><trkpt lat="45.4958935" lon="11.1934729"><ele>319.4</ele><time>2026-04-26T06:32:15.289Z</time></trkpt><trkpt lat="45.4959957" lon="11.1934837"><ele>321.2</ele><time>2026-04-26T06:32:17.289Z</time></trkpt><trkpt lat="45.4961017" lon="11.1935118"><ele>323.0</ele><time>2026-04-26T06:32:19.288Z</time></trkpt><trkpt lat="45.4962071" lon="11.1935676"><ele>324.4</ele><time>2026-04-26T06:32:21.284Z</time></trkpt><trkpt lat="45.4963132" lon="11.1936216"><ele>325.79999999999995</ele><time>2026-04-26T06:32:23.286Z</time></trkpt><trkpt lat="45.4964222" lon="11.1936609"><ele>327.2</ele><time>2026-04-26T06:32:25.291Z</time></trkpt><trkpt lat="45.4964859" lon="11.1936743"><ele>328.6</ele><time>2026-04-26T06:32:26.289Z</time></trkpt><trkpt lat="45.4966053" lon="11.1936935"><ele>330.0</ele><time>2026-04-26T06:32:28.289Z</time></trkpt><trkpt lat="45.4966682" lon="11.1937003"><ele>330.0</ele><time>2026-04-26T06:32:29.288Z</time></trkpt><trkpt lat="45.4967369" lon="11.1937036"><ele>330.0</ele><time>2026-04-26T06:32:30.296Z</time></trkpt><trkpt lat="45.4968599" lon="11.1937252"><ele>330.0</ele><time>2026-04-26T06:32:32.286Z</time></trkpt><trkpt lat="45.4969821" lon="11.1937364"><ele>330.0</ele><time>2026-04-26T06:32:34.288Z</time></trkpt><trkpt lat="45.4970453" lon="11.1937387"><ele>330.0</ele><time>2026-04-26T06:32:35.285Z</time></trkpt><trkpt lat="45.4971629" lon="11.1937415"><ele>329.6</ele><time>2026-04-26T06:32:37.285Z</time></trkpt><trkpt lat="45.4972778" lon="11.1937517"><ele>329.2</ele><time>2026-04-26T06:32:39.287Z</time></trkpt><trkpt lat="45.4973989" lon="11.1937488"><ele>328.79999999999995</ele><time>2026-04-26T06:32:41.291Z</time></trkpt><trkpt lat="45.4974649" lon="11.1937372"><ele>328.4</ele><time>2026-04-26T06:32:42.286Z</time></trkpt><trkpt lat="45.4975352" lon="11.1937222"><ele>328.0</ele><time>2026-04-26T06:32:43.288Z</time></trkpt><trkpt lat="45.4976112" lon="11.1937037"><ele>327.99999999999994</ele><time>2026-04-26T06:32:44.286Z</time></trkpt><trkpt lat="45.4976872" lon="11.1936859"><ele>328.0</ele><time>2026-04-26T06:32:45.289Z</time></trkpt><trkpt lat="45.4977619" lon="11.1936607"><ele>328.0</ele><time>2026-04-26T06:32:46.289Z</time></trkpt><trkpt lat="45.4978327" lon="11.1936378"><ele>328.0</ele><time>2026-04-26T06:32:47.285Z</time></trkpt><trkpt lat="45.4979051" lon="11.1936139"><ele>328.0</ele><time>2026-04-26T06:32:48.291Z</time></trkpt><trkpt lat="45.4979729" lon="11.1935846"><ele>327.99999999999994</ele><time>2026-04-26T06:32:49.287Z</time></trkpt><trkpt lat="45.4980496" lon="11.1935658"><ele>328.0</ele><time>2026-04-26T06:32:50.294Z</time></trkpt><trkpt lat="45.498127" lon="11.193552"><ele>327.1428571428571</ele><time>2026-04-26T06:32:51.284Z</time></trkpt><trkpt lat="45.4982017" lon="11.1935341"><ele>326.2857142857143</ele><time>2026-04-26T06:32:52.285Z</time></trkpt><trkpt lat="45.4982751" lon="11.1935247"><ele>325.42857142857144</ele><time>2026-04-26T06:32:53.285Z</time></trkpt><trkpt lat="45.4983502" lon="11.1935088"><ele>324.57142857142856</ele><time>2026-04-26T06:32:54.287Z</time></trkpt><trkpt lat="45.4984274" lon="11.1935013"><ele>323.7142857142857</ele><time>2026-04-26T06:32:55.286Z</time></trkpt><trkpt lat="45.4984999" lon="11.1934944"><ele>322.85714285714283</ele><time>2026-04-26T06:32:56.287Z</time></trkpt><trkpt lat="45.4985736" lon="11.1934878"><ele>322.0</ele><time>2026-04-26T06:32:57.29Z</time></trkpt><trkpt lat="45.49864" lon="11.1934596"><ele>322.0</ele><time>2026-04-26T06:32:58.293Z</time></trkpt><trkpt lat="45.4987083" lon="11.1934361"><ele>322.0</ele><time>2026-04-26T06:32:59.286Z</time></trkpt><trkpt lat="45.4987693" lon="11.1934131"><ele>322.0</ele><time>2026-04-26T06:33:00.294Z</time></trkpt><trkpt lat="45.4988924" lon="11.1933744"><ele>322.0</ele><time>2026-04-26T06:33:02.289Z</time></trkpt><trkpt lat="45.4989547" lon="11.1933594"><ele>322.0</ele><time>2026-04-26T06:33:03.286Z</time></trkpt><trkpt lat="45.4990225" lon="11.1933494"><ele>322.0</ele><time>2026-04-26T06:33:04.286Z</time></trkpt><trkpt lat="45.4990936" lon="11.1933412"><ele>320.66666666666663</ele><time>2026-04-26T06:33:05.292Z</time></trkpt><trkpt lat="45.4991661" lon="11.1933336"><ele>319.3333333333333</ele><time>2026-04-26T06:33:06.288Z</time></trkpt><trkpt lat="45.4992448" lon="11.1933187"><ele>318.0</ele><time>2026-04-26T06:33:07.285Z</time></trkpt><trkpt lat="45.499325" lon="11.1932854"><ele>316.6666666666667</ele><time>2026-04-26T06:33:08.285Z</time></trkpt><trkpt lat="45.4994036" lon="11.1932547"><ele>315.33333333333337</ele><time>2026-04-26T06:33:09.285Z</time></trkpt><trkpt lat="45.4994885" lon="11.1932502"><ele>314.0</ele><time>2026-04-26T06:33:10.296Z</time></trkpt><trkpt lat="45.4995809" lon="11.1932541"><ele>313.33333333333337</ele><time>2026-04-26T06:33:11.287Z</time></trkpt><trkpt lat="45.4996715" lon="11.193268"><ele>312.6666666666667</ele><time>2026-04-26T06:33:12.287Z</time></trkpt><trkpt lat="45.4997607" lon="11.1932721"><ele>312.0</ele><time>2026-04-26T06:33:13.29Z</time></trkpt><trkpt lat="45.4998471" lon="11.1932787"><ele>311.3333333333333</ele><time>2026-04-26T06:33:14.287Z</time></trkpt><trkpt lat="45.4999317" lon="11.1932769"><ele>310.66666666666663</ele><time>2026-04-26T06:33:15.285Z</time></trkpt><trkpt lat="45.500016" lon="11.1932731"><ele>310.0</ele><time>2026-04-26T06:33:16.287Z</time></trkpt><trkpt lat="45.5000988" lon="11.1932744"><ele>310.0</ele><time>2026-04-26T06:33:17.285Z</time></trkpt><trkpt lat="45.5001789" lon="11.1932815"><ele>310.0</ele><time>2026-04-26T06:33:18.286Z</time></trkpt><trkpt lat="45.5002616" lon="11.1932915"><ele>310.0</ele><time>2026-04-26T06:33:19.294Z</time></trkpt><trkpt lat="45.5003425" lon="11.1932876"><ele>310.0</ele><time>2026-04-26T06:33:20.294Z</time></trkpt><trkpt lat="45.5004183" lon="11.1932959"><ele>310.0</ele><time>2026-04-26T06:33:21.285Z</time></trkpt><trkpt lat="45.5004878" lon="11.1933143"><ele>310.0</ele><time>2026-04-26T06:33:22.286Z</time></trkpt><trkpt lat="45.5006082" lon="11.1933516"><ele>311.2</ele><time>2026-04-26T06:33:24.28Z</time></trkpt><trkpt lat="45.5007172" lon="11.1933745"><ele>312.4</ele><time>2026-04-26T06:33:26.288Z</time></trkpt><trkpt lat="45.5008167" lon="11.1933993"><ele>313.6</ele><time>2026-04-26T06:33:28.28Z</time></trkpt><trkpt lat="45.5009197" lon="11.1934131"><ele>314.8</ele><time>2026-04-26T06:33:30.293Z</time></trkpt><trkpt lat="45.5010126" lon="11.1934253"><ele>316.0</ele><time>2026-04-26T06:33:32.289Z</time></trkpt><trkpt lat="45.501109" lon="11.1934501"><ele>316.0</ele><time>2026-04-26T06:33:34.287Z</time></trkpt><trkpt lat="45.5012048" lon="11.1934885"><ele>316.0</ele><time>2026-04-26T06:33:36.287Z</time></trkpt><trkpt lat="45.5013126" lon="11.1935065"><ele>316.0</ele><time>2026-04-26T06:33:38.287Z</time></trkpt><trkpt lat="45.5014239" lon="11.1934888"><ele>316.0</ele><time>2026-04-26T06:33:40.29Z</time></trkpt><trkpt lat="45.5015231" lon="11.1934856"><ele>316.0</ele><time>2026-04-26T06:33:42.289Z</time></trkpt><trkpt lat="45.5016181" lon="11.1935147"><ele>317.20000000000005</ele><time>2026-04-26T06:33:44.285Z</time></trkpt><trkpt lat="45.5017164" lon="11.1935361"><ele>318.40000000000003</ele><time>2026-04-26T06:33:46.291Z</time></trkpt><trkpt lat="45.5018265" lon="11.1935636"><ele>319.6</ele><time>2026-04-26T06:33:48.294Z</time></trkpt><trkpt lat="45.5019214" lon="11.1935824"><ele>320.8</ele><time>2026-04-26T06:33:50.297Z</time></trkpt><trkpt lat="45.5020149" lon="11.1935804"><ele>322.0</ele><time>2026-04-26T06:33:52.287Z</time></trkpt><trkpt lat="45.5021056" lon="11.1935654"><ele>322.8333333333333</ele><time>2026-04-26T06:33:54.285Z</time></trkpt><trkpt lat="45.5021969" lon="11.1935437"><ele>323.66666666666663</ele><time>2026-04-26T06:33:56.292Z</time></trkpt><trkpt lat="45.502286" lon="11.1935266"><ele>324.5</ele><time>2026-04-26T06:33:58.294Z</time></trkpt><trkpt lat="45.5023778" lon="11.1935263"><ele>325.3333333333333</ele><time>2026-04-26T06:34:00.305Z</time></trkpt><trkpt lat="45.5024627" lon="11.1935514"><ele>326.1666666666667</ele><time>2026-04-26T06:34:02.285Z</time></trkpt><trkpt lat="45.50254" lon="11.1935997"><ele>327.0</ele><time>2026-04-26T06:34:04.285Z</time></trkpt><trkpt lat="45.5026076" lon="11.1936576"><ele>327.0</ele><time>2026-04-26T06:34:06.279Z</time></trkpt><trkpt lat="45.5026831" lon="11.1936935"><ele>327.0</ele><time>2026-04-26T06:34:08.286Z</time></trkpt><trkpt lat="45.5027639" lon="11.193706"><ele>327.0</ele><time>2026-04-26T06:34:10.295Z</time></trkpt><trkpt lat="45.5028469" lon="11.193683"><ele>327.0</ele><time>2026-04-26T06:34:12.279Z</time></trkpt><trkpt lat="45.502915" lon="11.1936383"><ele>327.0</ele><time>2026-04-26T06:34:14.289Z</time></trkpt><trkpt lat="45.5029764" lon="11.1935963"><ele>327.0</ele><time>2026-04-26T06:34:16.288Z</time></trkpt><trkpt lat="45.5030503" lon="11.1935988"><ele>328.0</ele><time>2026-04-26T06:34:18.285Z</time></trkpt><trkpt lat="45.5031301" lon="11.1936221"><ele>329.0</ele><time>2026-04-26T06:34:20.288Z</time></trkpt><trkpt lat="45.5032192" lon="11.193651"><ele>330.0</ele><time>2026-04-26T06:34:22.288Z</time></trkpt><trkpt lat="45.503307" lon="11.1936813"><ele>331.0</ele><time>2026-04-26T06:34:24.288Z</time></trkpt><trkpt lat="45.5033893" lon="11.1937101"><ele>332.0</ele><time>2026-04-26T06:34:26.287Z</time></trkpt><trkpt lat="45.5034715" lon="11.1937321"><ele>333.0</ele><time>2026-04-26T06:34:28.282Z</time></trkpt><trkpt lat="45.5035576" lon="11.1937546"><ele>333.0</ele><time>2026-04-26T06:34:30.294Z</time></trkpt><trkpt lat="45.5036446" lon="11.1937626"><ele>333.0</ele><time>2026-04-26T06:34:32.283Z</time></trkpt><trkpt lat="45.5037424" lon="11.1937673"><ele>333.0</ele><time>2026-04-26T06:34:34.29Z</time></trkpt><trkpt lat="45.5038424" lon="11.1937718"><ele>333.0</ele><time>2026-04-26T06:34:36.283Z</time></trkpt><trkpt lat="45.503945" lon="11.1937707"><ele>333.0</ele><time>2026-04-26T06:34:38.288Z</time></trkpt><trkpt lat="45.5040462" lon="11.1937603"><ele>332.59999999999997</ele><time>2026-04-26T06:34:40.294Z</time></trkpt><trkpt lat="45.5041393" lon="11.1937511"><ele>332.2</ele><time>2026-04-26T06:34:42.294Z</time></trkpt><trkpt lat="45.5042318" lon="11.1937217"><ele>331.8</ele><time>2026-04-26T06:34:44.281Z</time></trkpt><trkpt lat="45.5043231" lon="11.193668"><ele>331.4</ele><time>2026-04-26T06:34:46.283Z</time></trkpt><trkpt lat="45.5044334" lon="11.1936655"><ele>331.0</ele><time>2026-04-26T06:34:48.287Z</time></trkpt><trkpt lat="45.5045525" lon="11.1936694"><ele>330.5</ele><time>2026-04-26T06:34:50.293Z</time></trkpt><trkpt lat="45.5046126" lon="11.1936351"><ele>330.0</ele><time>2026-04-26T06:34:51.287Z</time></trkpt><trkpt lat="45.5047134" lon="11.1935906"><ele>329.5</ele><time>2026-04-26T06:34:53.286Z</time></trkpt><trkpt lat="45.5047914" lon="11.1935568"><ele>329.0</ele><time>2026-04-26T06:34:55.287Z</time></trkpt><trkpt lat="45.5048512" lon="11.1935202"><ele>328.5</ele><time>2026-04-26T06:34:57.287Z</time></trkpt><trkpt lat="45.504932" lon="11.1934859"><ele>328.0</ele><time>2026-04-26T06:35:00.295Z</time></trkpt><trkpt lat="45.5049983" lon="11.1934718"><ele>328.0</ele><time>2026-04-26T06:35:02.289Z</time></trkpt><trkpt lat="45.5050879" lon="11.1934792"><ele>328.0</ele><time>2026-04-26T06:35:04.304Z</time></trkpt><trkpt lat="45.5051734" lon="11.1935013"><ele>328.0</ele><time>2026-04-26T06:35:06.293Z</time></trkpt><trkpt lat="45.5052809" lon="11.1935731"><ele>328.0</ele><time>2026-04-26T06:35:08.289Z</time></trkpt><trkpt lat="45.5053656" lon="11.1936"><ele>328.0</ele><time>2026-04-26T06:35:09.301Z</time></trkpt><trkpt lat="45.5054432" lon="11.1935839"><ele>326.79999999999995</ele><time>2026-04-26T06:35:10.306Z</time></trkpt><trkpt lat="45.5055497" lon="11.1935622"><ele>325.6</ele><time>2026-04-26T06:35:11.295Z</time></trkpt><trkpt lat="45.5056594" lon="11.1935776"><ele>324.4</ele><time>2026-04-26T06:35:13.294Z</time></trkpt><trkpt lat="45.5057321" lon="11.1935675"><ele>323.20000000000005</ele><time>2026-04-26T06:35:17.297Z</time></trkpt><trkpt lat="45.5058109" lon="11.1935365"><ele>322.0</ele><time>2026-04-26T06:35:21.285Z</time></trkpt><trkpt lat="45.5058883" lon="11.1935216"><ele>322.0</ele><time>2026-04-26T06:35:24.29Z</time></trkpt><trkpt lat="45.5059668" lon="11.1934927"><ele>322.0</ele><time>2026-04-26T06:35:27.289Z</time></trkpt><trkpt lat="45.5060418" lon="11.1934537"><ele>322.0</ele><time>2026-04-26T06:35:30.296Z</time></trkpt><trkpt lat="45.5061118" lon="11.1934195"><ele>322.0</ele><time>2026-04-26T06:35:33.281Z</time></trkpt><trkpt lat="45.5061714" lon="11.1933681"><ele>322.0</ele><time>2026-04-26T06:35:36.28Z</time></trkpt><trkpt lat="45.5062424" lon="11.1932966"><ele>322.0</ele><time>2026-04-26T06:35:39.28Z</time></trkpt><trkpt lat="45.5063097" lon="11.1932277"><ele>324.3333333333333</ele><time>2026-04-26T06:35:42.282Z</time></trkpt><trkpt lat="45.5063611" lon="11.1931382"><ele>326.66666666666663</ele><time>2026-04-26T06:35:45.29Z</time></trkpt><trkpt lat="45.5063856" lon="11.1930266"><ele>329.0</ele><time>2026-04-26T06:35:48.294Z</time></trkpt><trkpt lat="45.5064294" lon="11.1929536"><ele>331.3333333333333</ele><time>2026-04-26T06:35:50.286Z</time></trkpt><trkpt lat="45.5065061" lon="11.1929145"><ele>333.6666666666667</ele><time>2026-04-26T06:35:53.295Z</time></trkpt><trkpt lat="45.5065881" lon="11.1928973"><ele>336.0</ele><time>2026-04-26T06:35:56.291Z</time></trkpt><trkpt lat="45.5066503" lon="11.1928818"><ele>336.0</ele><time>2026-04-26T06:35:58.3Z</time></trkpt><trkpt lat="45.5067167" lon="11.1928514"><ele>336.0</ele><time>2026-04-26T06:36:00.319Z</time></trkpt><trkpt lat="45.5067796" lon="11.1928223"><ele>336.0</ele><time>2026-04-26T06:36:02.285Z</time></trkpt><trkpt lat="45.5068489" lon="11.1927425"><ele>336.0</ele><time>2026-04-26T06:36:05.289Z</time></trkpt><trkpt lat="45.5069079" lon="11.1926445"><ele>336.0</ele><time>2026-04-26T06:36:08.286Z</time></trkpt><trkpt lat="45.5069488" lon="11.1925337"><ele>336.0</ele><time>2026-04-26T06:36:11.285Z</time></trkpt><trkpt lat="45.506978" lon="11.1924512"><ele>336.0</ele><time>2026-04-26T06:36:13.284Z</time></trkpt><trkpt lat="45.5070076" lon="11.1923685"><ele>336.0</ele><time>2026-04-26T06:36:15.287Z</time></trkpt><trkpt lat="45.5070402" lon="11.192281"><ele>336.0</ele><time>2026-04-26T06:36:18.284Z</time></trkpt><trkpt lat="45.5071002" lon="11.1921887"><ele>336.0</ele><time>2026-04-26T06:36:22.299Z</time></trkpt><trkpt lat="45.5071476" lon="11.1920747"><ele>336.0</ele><time>2026-04-26T06:36:25.286Z</time></trkpt><trkpt lat="45.5071938" lon="11.1919634"><ele>336.0</ele><time>2026-04-26T06:36:28.289Z</time></trkpt><trkpt lat="45.5072638" lon="11.1918839"><ele>337.42857142857144</ele><time>2026-04-26T06:36:31.289Z</time></trkpt><trkpt lat="45.5073245" lon="11.1918395"><ele>338.8571428571429</ele><time>2026-04-26T06:36:33.28Z</time></trkpt><trkpt lat="45.5073822" lon="11.1917782"><ele>340.2857142857143</ele><time>2026-04-26T06:36:35.285Z</time></trkpt><trkpt lat="45.507437" lon="11.1917243"><ele>341.7142857142857</ele><time>2026-04-26T06:36:37.292Z</time></trkpt><trkpt lat="45.5074906" lon="11.1916693"><ele>343.14285714285717</ele><time>2026-04-26T06:36:39.286Z</time></trkpt><trkpt lat="45.5075473" lon="11.1916146"><ele>344.57142857142856</ele><time>2026-04-26T06:36:41.296Z</time></trkpt><trkpt lat="45.507601" lon="11.1915422"><ele>346.0</ele><time>2026-04-26T06:36:43.283Z</time></trkpt><trkpt lat="45.5076694" lon="11.1914672"><ele>348.66666666666663</ele><time>2026-04-26T06:36:46.288Z</time></trkpt><trkpt lat="45.5077405" lon="11.1913936"><ele>351.3333333333333</ele><time>2026-04-26T06:36:49.285Z</time></trkpt><trkpt lat="45.5078139" lon="11.1913293"><ele>354.0</ele><time>2026-04-26T06:36:52.286Z</time></trkpt><trkpt lat="45.5078927" lon="11.1912701"><ele>356.6666666666667</ele><time>2026-04-26T06:36:55.286Z</time></trkpt><trkpt lat="45.5079523" lon="11.1912281"><ele>359.33333333333337</ele><time>2026-04-26T06:36:57.282Z</time></trkpt><trkpt lat="45.5080136" lon="11.1911833"><ele>362.0</ele><time>2026-04-26T06:36:59.282Z</time></trkpt><trkpt lat="45.5080985" lon="11.1911267"><ele>362.0</ele><time>2026-04-26T06:37:02.29Z</time></trkpt><trkpt lat="45.508161" lon="11.1910836"><ele>362.0</ele><time>2026-04-26T06:37:04.282Z</time></trkpt><trkpt lat="45.5082181" lon="11.1910397"><ele>362.0</ele><time>2026-04-26T06:37:06.285Z</time></trkpt><trkpt lat="45.5083049" lon="11.1909803"><ele>362.0</ele><time>2026-04-26T06:37:09.283Z</time></trkpt><trkpt lat="45.5083622" lon="11.1909403"><ele>362.0</ele><time>2026-04-26T06:37:11.288Z</time></trkpt><trkpt lat="45.5084448" lon="11.1908879"><ele>362.0</ele><time>2026-04-26T06:37:14.291Z</time></trkpt><trkpt lat="45.5085248" lon="11.1908263"><ele>362.0</ele><time>2026-04-26T06:37:17.286Z</time></trkpt><trkpt lat="45.5086012" lon="11.1907711"><ele>362.0</ele><time>2026-04-26T06:37:20.289Z</time></trkpt><trkpt lat="45.5086837" lon="11.190721"><ele>362.0</ele><time>2026-04-26T06:37:23.282Z</time></trkpt><trkpt lat="45.5087675" lon="11.1906663"><ele>362.0</ele><time>2026-04-26T06:37:26.286Z</time></trkpt><trkpt lat="45.5088293" lon="11.1906413"><ele>362.0</ele><time>2026-04-26T06:37:28.291Z</time></trkpt><trkpt lat="45.5088946" lon="11.1906113"><ele>362.0</ele><time>2026-04-26T06:37:30.301Z</time></trkpt><trkpt lat="45.5089776" lon="11.1905614"><ele>364.6666666666667</ele><time>2026-04-26T06:37:33.287Z</time></trkpt><trkpt lat="45.5090458" lon="11.1904942"><ele>367.33333333333337</ele><time>2026-04-26T06:37:36.286Z</time></trkpt><trkpt lat="45.5091051" lon="11.1904413"><ele>370.0</ele><time>2026-04-26T06:37:39.283Z</time></trkpt><trkpt lat="45.5091771" lon="11.1903655"><ele>372.6666666666667</ele><time>2026-04-26T06:37:42.287Z</time></trkpt><trkpt lat="45.5092322" lon="11.1903159"><ele>375.3333333333333</ele><time>2026-04-26T06:37:44.284Z</time></trkpt><trkpt lat="45.5092937" lon="11.1902688"><ele>378.0</ele><time>2026-04-26T06:37:46.287Z</time></trkpt><trkpt lat="45.5093666" lon="11.1902055"><ele>378.0</ele><time>2026-04-26T06:37:49.288Z</time></trkpt><trkpt lat="45.509428" lon="11.1901518"><ele>378.0</ele><time>2026-04-26T06:37:52.29Z</time></trkpt><trkpt lat="45.5094958" lon="11.1901027"><ele>378.0</ele><time>2026-04-26T06:37:55.286Z</time></trkpt><trkpt lat="45.5095696" lon="11.1900444"><ele>378.0</ele><time>2026-04-26T06:37:58.286Z</time></trkpt><trkpt lat="45.5096426" lon="11.1899734"><ele>378.0</ele><time>2026-04-26T06:38:01.281Z</time></trkpt><trkpt lat="45.5097079" lon="11.1899031"><ele>378.0</ele><time>2026-04-26T06:38:04.291Z</time></trkpt><trkpt lat="45.5097711" lon="11.1898486"><ele>380.2857142857143</ele><time>2026-04-26T06:38:07.283Z</time></trkpt><trkpt lat="45.5098316" lon="11.1897881"><ele>382.57142857142856</ele><time>2026-04-26T06:38:10.291Z</time></trkpt><trkpt lat="45.5098932" lon="11.1897402"><ele>384.8571428571429</ele><time>2026-04-26T06:38:13.285Z</time></trkpt><trkpt lat="45.5099595" lon="11.1896899"><ele>387.1428571428571</ele><time>2026-04-26T06:38:16.288Z</time></trkpt><trkpt lat="45.510024" lon="11.1896473"><ele>389.42857142857144</ele><time>2026-04-26T06:38:19.292Z</time></trkpt><trkpt lat="45.5100972" lon="11.1896054"><ele>391.7142857142857</ele><time>2026-04-26T06:38:22.283Z</time></trkpt><trkpt lat="45.5101624" lon="11.1895583"><ele>394.0</ele><time>2026-04-26T06:38:25.284Z</time></trkpt><trkpt lat="45.5102235" lon="11.1895163"><ele>394.0</ele><time>2026-04-26T06:38:28.286Z</time></trkpt><trkpt lat="45.5102849" lon="11.1894808"><ele>394.0</ele><time>2026-04-26T06:38:31.283Z</time></trkpt><trkpt lat="45.510343" lon="11.1894387"><ele>394.0</ele><time>2026-04-26T06:38:34.287Z</time></trkpt><trkpt lat="45.5104079" lon="11.1893723"><ele>394.0</ele><time>2026-04-26T06:38:38.279Z</time></trkpt><trkpt lat="45.5104769" lon="11.1893183"><ele>394.0</ele><time>2026-04-26T06:38:42.284Z</time></trkpt><trkpt lat="45.5105398" lon="11.1892567"><ele>394.0</ele><time>2026-04-26T06:38:46.286Z</time></trkpt><trkpt lat="45.5105979" lon="11.1891901"><ele>394.0</ele><time>2026-04-26T06:38:50.289Z</time></trkpt><trkpt lat="45.5106571" lon="11.1891191"><ele>393.14285714285717</ele><time>2026-04-26T06:38:54.285Z</time></trkpt><trkpt lat="45.5107186" lon="11.1890473"><ele>392.28571428571433</ele><time>2026-04-26T06:38:58.288Z</time></trkpt><trkpt lat="45.5107822" lon="11.1889898"><ele>391.42857142857144</ele><time>2026-04-26T06:39:02.288Z</time></trkpt><trkpt lat="45.5108373" lon="11.1889448"><ele>390.57142857142856</ele><time>2026-04-26T06:39:05.286Z</time></trkpt><trkpt lat="45.5108982" lon="11.1888933"><ele>389.7142857142857</ele><time>2026-04-26T06:39:08.28Z</time></trkpt><trkpt lat="45.5109559" lon="11.1888397"><ele>388.85714285714283</ele><time>2026-04-26T06:39:11.287Z</time></trkpt><trkpt lat="45.5110153" lon="11.1887808"><ele>388.0</ele><time>2026-04-26T06:39:14.281Z</time></trkpt><trkpt lat="45.5110756" lon="11.1887242"><ele>389.4285714285714</ele><time>2026-04-26T06:39:17.283Z</time></trkpt><trkpt lat="45.5111361" lon="11.1886713"><ele>390.8571428571429</ele><time>2026-04-26T06:39:20.293Z</time></trkpt><trkpt lat="45.5111969" lon="11.1886129"><ele>392.2857142857143</ele><time>2026-04-26T06:39:23.295Z</time></trkpt><trkpt lat="45.5112573" lon="11.1885673"><ele>393.71428571428567</ele><time>2026-04-26T06:39:26.284Z</time></trkpt><trkpt lat="45.5113223" lon="11.1885205"><ele>395.1428571428571</ele><time>2026-04-26T06:39:29.287Z</time></trkpt><trkpt lat="45.511394" lon="11.1884734"><ele>396.57142857142856</ele><time>2026-04-26T06:39:33.285Z</time></trkpt><trkpt lat="45.5114498" lon="11.1884264"><ele>398.0</ele><time>2026-04-26T06:39:36.286Z</time></trkpt><trkpt lat="45.511518" lon="11.1883613"><ele>397.99999999999994</ele><time>2026-04-26T06:39:39.284Z</time></trkpt><trkpt lat="45.5115792" lon="11.1883018"><ele>398.0</ele><time>2026-04-26T06:39:42.289Z</time></trkpt><trkpt lat="45.5116439" lon="11.188249"><ele>398.0</ele><time>2026-04-26T06:39:45.29Z</time></trkpt><trkpt lat="45.5116969" lon="11.1881812"><ele>398.0</ele><time>2026-04-26T06:39:49.286Z</time></trkpt><trkpt lat="45.5117486" lon="11.1881191"><ele>398.0</ele><time>2026-04-26T06:39:52.295Z</time></trkpt><trkpt lat="45.5118174" lon="11.1880448"><ele>397.99999999999994</ele><time>2026-04-26T06:39:56.289Z</time></trkpt><trkpt lat="45.5118682" lon="11.1879762"><ele>398.0</ele><time>2026-04-26T06:40:01.285Z</time></trkpt><trkpt lat="45.5119163" lon="11.1879123"><ele>399.99999999999994</ele><time>2026-04-26T06:40:04.277Z</time></trkpt><trkpt lat="45.5119774" lon="11.1878269"><ele>402.0</ele><time>2026-04-26T06:40:07.284Z</time></trkpt><trkpt lat="45.5120323" lon="11.1877428"><ele>404.0</ele><time>2026-04-26T06:40:10.287Z</time></trkpt><trkpt lat="45.5120827" lon="11.1876676"><ele>406.0</ele><time>2026-04-26T06:40:13.286Z</time></trkpt><trkpt lat="45.512136" lon="11.18759"><ele>407.99999999999994</ele><time>2026-04-26T06:40:16.283Z</time></trkpt><trkpt lat="45.5121862" lon="11.1875129"><ele>410.0</ele><time>2026-04-26T06:40:19.281Z</time></trkpt><trkpt lat="45.5122446" lon="11.1874237"><ele>409.99999999999994</ele><time>2026-04-26T06:40:22.281Z</time></trkpt><trkpt lat="45.5123005" lon="11.1873536"><ele>410.0</ele><time>2026-04-26T06:40:24.281Z</time></trkpt><trkpt lat="45.5123558" lon="11.1872755"><ele>410.0</ele><time>2026-04-26T06:40:27.283Z</time></trkpt><trkpt lat="45.51241" lon="11.1871922"><ele>410.0</ele><time>2026-04-26T06:40:30.291Z</time></trkpt><trkpt lat="45.5124538" lon="11.1870994"><ele>409.99999999999994</ele><time>2026-04-26T06:40:33.281Z</time></trkpt><trkpt lat="45.512511" lon="11.1870248"><ele>410.0</ele><time>2026-04-26T06:40:36.276Z</time></trkpt><trkpt lat="45.5125599" lon="11.1869349"><ele>410.0</ele><time>2026-04-26T06:40:39.296Z</time></trkpt><trkpt lat="45.5126063" lon="11.1868682"><ele>410.0</ele><time>2026-04-26T06:40:41.284Z</time></trkpt><trkpt lat="45.5126533" lon="11.186807"><ele>410.0</ele><time>2026-04-26T06:40:43.304Z</time></trkpt><trkpt lat="45.5127125" lon="11.1867325"><ele>410.0</ele><time>2026-04-26T06:40:45.293Z</time></trkpt><trkpt lat="45.5127621" lon="11.1866613"><ele>410.0</ele><time>2026-04-26T06:40:47.284Z</time></trkpt><trkpt lat="45.5128168" lon="11.186593"><ele>410.0</ele><time>2026-04-26T06:40:49.293Z</time></trkpt><trkpt lat="45.5128763" lon="11.1865304"><ele>410.0</ele><time>2026-04-26T06:40:51.291Z</time></trkpt><trkpt lat="45.512943" lon="11.186486"><ele>411.3333333333333</ele><time>2026-04-26T06:40:53.297Z</time></trkpt><trkpt lat="45.5130079" lon="11.1865365"><ele>412.66666666666663</ele><time>2026-04-26T06:40:55.285Z</time></trkpt><trkpt lat="45.5130459" lon="11.1866697"><ele>414.0</ele><time>2026-04-26T06:40:57.284Z</time></trkpt><trkpt lat="45.5131221" lon="11.1867905"><ele>415.33333333333337</ele><time>2026-04-26T06:40:59.284Z</time></trkpt><trkpt lat="45.5131817" lon="11.1868218"><ele>416.6666666666667</ele><time>2026-04-26T06:41:00.281Z</time></trkpt><trkpt lat="45.5132489" lon="11.186835"><ele>418.0</ele><time>2026-04-26T06:41:01.284Z</time></trkpt><trkpt lat="45.5133202" lon="11.1868411"><ele>418.0</ele><time>2026-04-26T06:41:02.283Z</time></trkpt><trkpt lat="45.5134747" lon="11.1868486"><ele>418.0</ele><time>2026-04-26T06:41:04.285Z</time></trkpt><trkpt lat="45.5135481" lon="11.1868588"><ele>418.0</ele><time>2026-04-26T06:41:05.277Z</time></trkpt><trkpt lat="45.5136256" lon="11.1868653"><ele>418.0</ele><time>2026-04-26T06:41:06.291Z</time></trkpt><trkpt lat="45.5136997" lon="11.1868754"><ele>418.0</ele><time>2026-04-26T06:41:07.283Z</time></trkpt><trkpt lat="45.5137823" lon="11.1868684"><ele>417.59999999999997</ele><time>2026-04-26T06:41:08.287Z</time></trkpt><trkpt lat="45.5138636" lon="11.1868831"><ele>417.2</ele><time>2026-04-26T06:41:09.286Z</time></trkpt><trkpt lat="45.5139574" lon="11.1868869"><ele>416.8</ele><time>2026-04-26T06:41:10.288Z</time></trkpt><trkpt lat="45.5140458" lon="11.1868969"><ele>416.4</ele><time>2026-04-26T06:41:11.287Z</time></trkpt><trkpt lat="45.5141399" lon="11.1869157"><ele>416.0</ele><time>2026-04-26T06:41:12.278Z</time></trkpt><trkpt lat="45.5142392" lon="11.1869258"><ele>416.0</ele><time>2026-04-26T06:41:13.286Z</time></trkpt><trkpt lat="45.5143326" lon="11.1869494"><ele>416.0</ele><time>2026-04-26T06:41:14.283Z</time></trkpt><trkpt lat="45.514432" lon="11.1869711"><ele>416.0</ele><time>2026-04-26T06:41:15.278Z</time></trkpt><trkpt lat="45.5145237" lon="11.1869856"><ele>416.0</ele><time>2026-04-26T06:41:16.277Z</time></trkpt><trkpt lat="45.5146124" lon="11.1870018"><ele>416.0</ele><time>2026-04-26T06:41:17.285Z</time></trkpt><trkpt lat="45.5147032" lon="11.1870106"><ele>415.8333333333333</ele><time>2026-04-26T06:41:18.285Z</time></trkpt><trkpt lat="45.514787" lon="11.1870051"><ele>415.66666666666663</ele><time>2026-04-26T06:41:19.283Z</time></trkpt><trkpt lat="45.514868" lon="11.1869937"><ele>415.5</ele><time>2026-04-26T06:41:20.294Z</time></trkpt><trkpt lat="45.5149461" lon="11.1869749"><ele>415.33333333333337</ele><time>2026-04-26T06:41:21.288Z</time></trkpt><trkpt lat="45.5150164" lon="11.1869631"><ele>415.1666666666667</ele><time>2026-04-26T06:41:22.285Z</time></trkpt><trkpt lat="45.5150873" lon="11.1869545"><ele>415.0</ele><time>2026-04-26T06:41:23.278Z</time></trkpt><trkpt lat="45.5151526" lon="11.1869611"><ele>415.0</ele><time>2026-04-26T06:41:24.279Z</time></trkpt><trkpt lat="45.515225" lon="11.18697"><ele>415.0</ele><time>2026-04-26T06:41:25.282Z</time></trkpt><trkpt lat="45.515299" lon="11.1869645"><ele>415.0</ele><time>2026-04-26T06:41:26.292Z</time></trkpt><trkpt lat="45.5153636" lon="11.1869984"><ele>415.0</ele><time>2026-04-26T06:41:27.291Z</time></trkpt><trkpt lat="45.5154249" lon="11.1870497"><ele>415.0</ele><time>2026-04-26T06:41:28.279Z</time></trkpt><trkpt lat="45.5154889" lon="11.1871231"><ele>415.0</ele><time>2026-04-26T06:41:29.284Z</time></trkpt><trkpt lat="45.5155538" lon="11.1871799"><ele>415.0</ele><time>2026-04-26T06:41:30.288Z</time></trkpt><trkpt lat="45.5156195" lon="11.1872328"><ele>415.2</ele><time>2026-04-26T06:41:31.283Z</time></trkpt><trkpt lat="45.5156757" lon="11.1872814"><ele>415.4</ele><time>2026-04-26T06:41:32.284Z</time></trkpt><trkpt lat="45.5157725" lon="11.1874011"><ele>415.6</ele><time>2026-04-26T06:41:34.281Z</time></trkpt><trkpt lat="45.5158229" lon="11.1875529"><ele>415.8</ele><time>2026-04-26T06:41:36.283Z</time></trkpt><trkpt lat="45.5158716" lon="11.1876972"><ele>416.0</ele><time>2026-04-26T06:41:38.287Z</time></trkpt><trkpt lat="45.5159177" lon="11.1878308"><ele>413.3333333333333</ele><time>2026-04-26T06:41:40.292Z</time></trkpt><trkpt lat="45.5159761" lon="11.1879764"><ele>410.66666666666663</ele><time>2026-04-26T06:41:42.282Z</time></trkpt><trkpt lat="45.5160425" lon="11.1881269"><ele>408.0</ele><time>2026-04-26T06:41:44.283Z</time></trkpt><trkpt lat="45.5160753" lon="11.1882038"><ele>405.33333333333337</ele><time>2026-04-26T06:41:45.285Z</time></trkpt><trkpt lat="45.5161142" lon="11.1882782"><ele>402.6666666666667</ele><time>2026-04-26T06:41:46.286Z</time></trkpt><trkpt lat="45.5161532" lon="11.1883496"><ele>400.0</ele><time>2026-04-26T06:41:47.285Z</time></trkpt><trkpt lat="45.516235" lon="11.1884807"><ele>400.2</ele><time>2026-04-26T06:41:49.28Z</time></trkpt><trkpt lat="45.5163083" lon="11.1885879"><ele>400.4</ele><time>2026-04-26T06:41:51.284Z</time></trkpt><trkpt lat="45.5164033" lon="11.1886624"><ele>400.6</ele><time>2026-04-26T06:41:53.281Z</time></trkpt><trkpt lat="45.5165245" lon="11.1886924"><ele>400.8</ele><time>2026-04-26T06:41:55.285Z</time></trkpt><trkpt lat="45.5165951" lon="11.1887039"><ele>401.0</ele><time>2026-04-26T06:41:56.287Z</time></trkpt><trkpt lat="45.516715" lon="11.1887213"><ele>401.0</ele><time>2026-04-26T06:41:58.285Z</time></trkpt><trkpt lat="45.5168281" lon="11.1887191"><ele>401.0</ele><time>2026-04-26T06:42:00.289Z</time></trkpt><trkpt lat="45.5168921" lon="11.1887132"><ele>401.0</ele><time>2026-04-26T06:42:01.282Z</time></trkpt><trkpt lat="45.5169625" lon="11.1886939"><ele>401.0</ele><time>2026-04-26T06:42:02.286Z</time></trkpt><trkpt lat="45.5170298" lon="11.1886776"><ele>401.0</ele><time>2026-04-26T06:42:03.285Z</time></trkpt><trkpt lat="45.5170949" lon="11.1886658"><ele>401.0</ele><time>2026-04-26T06:42:04.286Z</time></trkpt><trkpt lat="45.517159" lon="11.1886542"><ele>401.0</ele><time>2026-04-26T06:42:05.28Z</time></trkpt><trkpt lat="45.5172672" lon="11.1885917"><ele>402.6</ele><time>2026-04-26T06:42:07.283Z</time></trkpt><trkpt lat="45.5173426" lon="11.1885257"><ele>404.20000000000005</ele><time>2026-04-26T06:42:09.29Z</time></trkpt><trkpt lat="45.5174299" lon="11.1885366"><ele>405.79999999999995</ele><time>2026-04-26T06:42:12.281Z</time></trkpt><trkpt lat="45.5174774" lon="11.1886301"><ele>407.4</ele><time>2026-04-26T06:42:14.281Z</time></trkpt><trkpt lat="45.5175292" lon="11.1887658"><ele>409.0</ele><time>2026-04-26T06:42:16.29Z</time></trkpt><trkpt lat="45.5175616" lon="11.1889323"><ele>404.83333333333337</ele><time>2026-04-26T06:42:18.285Z</time></trkpt><trkpt lat="45.5176084" lon="11.1890631"><ele>400.6666666666667</ele><time>2026-04-26T06:42:20.296Z</time></trkpt><trkpt lat="45.5176013" lon="11.1892116"><ele>396.5</ele><time>2026-04-26T06:42:22.283Z</time></trkpt><trkpt lat="45.5175675" lon="11.1893276"><ele>392.33333333333337</ele><time>2026-04-26T06:42:24.281Z</time></trkpt><trkpt lat="45.5175428" lon="11.1894137"><ele>388.1666666666667</ele><time>2026-04-26T06:42:26.286Z</time></trkpt><trkpt lat="45.5175889" lon="11.1895143"><ele>384.0</ele><time>2026-04-26T06:42:28.286Z</time></trkpt><trkpt lat="45.5176708" lon="11.189618"><ele>384.0</ele><time>2026-04-26T06:42:30.296Z</time></trkpt><trkpt lat="45.5177421" lon="11.1897291"><ele>384.0</ele><time>2026-04-26T06:42:32.285Z</time></trkpt><trkpt lat="45.5178093" lon="11.1898265"><ele>384.0</ele><time>2026-04-26T06:42:34.286Z</time></trkpt><trkpt lat="45.5178794" lon="11.1899067"><ele>384.0</ele><time>2026-04-26T06:42:36.286Z</time></trkpt><trkpt lat="45.5179813" lon="11.1899621"><ele>384.0</ele><time>2026-04-26T06:42:38.288Z</time></trkpt><trkpt lat="45.5181013" lon="11.1900409"><ele>382.4</ele><time>2026-04-26T06:42:40.283Z</time></trkpt><trkpt lat="45.5182051" lon="11.1901133"><ele>380.79999999999995</ele><time>2026-04-26T06:42:42.284Z</time></trkpt><trkpt lat="45.5182628" lon="11.1901567"><ele>379.20000000000005</ele><time>2026-04-26T06:42:43.276Z</time></trkpt><trkpt lat="45.5183221" lon="11.1901951"><ele>377.6</ele><time>2026-04-26T06:42:44.28Z</time></trkpt><trkpt lat="45.5184255" lon="11.1902604"><ele>376.0</ele><time>2026-04-26T06:42:46.284Z</time></trkpt><trkpt lat="45.5185193" lon="11.1903588"><ele>376.0</ele><time>2026-04-26T06:42:48.279Z</time></trkpt><trkpt lat="45.5186066" lon="11.1904348"><ele>376.0</ele><time>2026-04-26T06:42:50.289Z</time></trkpt><trkpt lat="45.5186935" lon="11.1904662"><ele>376.0</ele><time>2026-04-26T06:42:52.285Z</time></trkpt><trkpt lat="45.5185908" lon="11.1904795"><ele>376.0</ele><time>2026-04-26T06:43:00.282Z</time></trkpt><trkpt lat="45.5184869" lon="11.1904465"><ele>376.0</ele><time>2026-04-26T06:43:02.281Z</time></trkpt><trkpt lat="45.5184257" lon="11.1904237"><ele>376.0</ele><time>2026-04-26T06:43:03.287Z</time></trkpt><trkpt lat="45.518323" lon="11.1903928"><ele>376.0</ele><time>2026-04-26T06:43:05.28Z</time></trkpt><trkpt lat="45.5182466" lon="11.1903497"><ele>376.0</ele><time>2026-04-26T06:43:07.278Z</time></trkpt><trkpt lat="45.5181741" lon="11.1903748"><ele>376.0</ele><time>2026-04-26T06:43:10.285Z</time></trkpt><trkpt lat="45.5182386" lon="11.1904734"><ele>376.0</ele><time>2026-04-26T06:43:14.286Z</time></trkpt><trkpt lat="45.5183469" lon="11.190542"><ele>376.0</ele><time>2026-04-26T06:43:16.286Z</time></trkpt><trkpt lat="45.5184075" lon="11.1905953"><ele>376.0</ele><time>2026-04-26T06:43:17.285Z</time></trkpt><trkpt lat="45.5184691" lon="11.1906538"><ele>376.0</ele><time>2026-04-26T06:43:18.291Z</time></trkpt><trkpt lat="45.5185257" lon="11.1906961"><ele>376.0</ele><time>2026-04-26T06:43:19.289Z</time></trkpt><trkpt lat="45.5185832" lon="11.1907517"><ele>376.0</ele><time>2026-04-26T06:43:20.285Z</time></trkpt><trkpt lat="45.5186379" lon="11.1907982"><ele>376.0</ele><time>2026-04-26T06:43:21.291Z</time></trkpt><trkpt lat="45.5186929" lon="11.1908529"><ele>376.0</ele><time>2026-04-26T06:43:22.286Z</time></trkpt><trkpt lat="45.5187533" lon="11.1908922"><ele>370.66666666666663</ele><time>2026-04-26T06:43:23.291Z</time></trkpt><trkpt lat="45.5188137" lon="11.1909406"><ele>365.3333333333333</ele><time>2026-04-26T06:43:24.293Z</time></trkpt><trkpt lat="45.5188738" lon="11.1909876"><ele>360.0</ele><time>2026-04-26T06:43:25.293Z</time></trkpt><trkpt lat="45.5189686" lon="11.1910702"><ele>354.6666666666667</ele><time>2026-04-26T06:43:27.291Z</time></trkpt><trkpt lat="45.5190525" lon="11.1911288"><ele>349.33333333333337</ele><time>2026-04-26T06:43:29.296Z</time></trkpt><trkpt lat="45.5191225" lon="11.1911873"><ele>344.0</ele><time>2026-04-26T06:43:31.278Z</time></trkpt><trkpt lat="45.5192107" lon="11.191202"><ele>344.0</ele><time>2026-04-26T06:43:33.275Z</time></trkpt><trkpt lat="45.519305" lon="11.1911898"><ele>344.0</ele><time>2026-04-26T06:43:35.298Z</time></trkpt><trkpt lat="45.5193834" lon="11.1911546"><ele>344.0</ele><time>2026-04-26T06:43:37.286Z</time></trkpt><trkpt lat="45.519442" lon="11.1910897"><ele>344.0</ele><time>2026-04-26T06:43:39.294Z</time></trkpt><trkpt lat="45.519504" lon="11.1910629"><ele>344.0</ele><time>2026-04-26T06:43:41.284Z</time></trkpt><trkpt lat="45.5195608" lon="11.1911659"><ele>344.0</ele><time>2026-04-26T06:43:44.292Z</time></trkpt><trkpt lat="45.5195859" lon="11.191269"><ele>346.6</ele><time>2026-04-26T06:43:46.288Z</time></trkpt><trkpt lat="45.5196492" lon="11.1913251"><ele>349.2</ele><time>2026-04-26T06:43:49.287Z</time></trkpt><trkpt lat="45.5197429" lon="11.1913599"><ele>351.8</ele><time>2026-04-26T06:43:52.291Z</time></trkpt><trkpt lat="45.5198161" lon="11.1914825"><ele>354.40000000000003</ele><time>2026-04-26T06:43:54.299Z</time></trkpt><trkpt lat="45.5198905" lon="11.1916016"><ele>357.0</ele><time>2026-04-26T06:43:56.292Z</time></trkpt><trkpt lat="45.5199761" lon="11.1917154"><ele>349.8</ele><time>2026-04-26T06:43:58.293Z</time></trkpt><trkpt lat="45.5200478" lon="11.191849"><ele>342.6</ele><time>2026-04-26T06:44:00.305Z</time></trkpt><trkpt lat="45.5201504" lon="11.1919477"><ele>335.40000000000003</ele><time>2026-04-26T06:44:02.278Z</time></trkpt><trkpt lat="45.5202411" lon="11.1920253"><ele>328.20000000000005</ele><time>2026-04-26T06:44:04.285Z</time></trkpt><trkpt lat="45.5203134" lon="11.1920805"><ele>321.0</ele><time>2026-04-26T06:44:06.291Z</time></trkpt><trkpt lat="45.5203177" lon="11.1921767"><ele>321.0</ele><time>2026-04-26T06:44:09.284Z</time></trkpt><trkpt lat="45.5202282" lon="11.1922218"><ele>321.0</ele><time>2026-04-26T06:44:12.276Z</time></trkpt><trkpt lat="45.5201453" lon="11.1922567"><ele>321.0</ele><time>2026-04-26T06:44:15.29Z</time></trkpt><trkpt lat="45.5200743" lon="11.1922728"><ele>321.0</ele><time>2026-04-26T06:44:18.286Z</time></trkpt><trkpt lat="45.5199954" lon="11.1922448"><ele>321.0</ele><time>2026-04-26T06:44:22.286Z</time></trkpt><trkpt lat="45.5199125" lon="11.1922339"><ele>321.0</ele><time>2026-04-26T06:44:26.298Z</time></trkpt><trkpt lat="45.5198305" lon="11.192235"><ele>320.99999999999994</ele><time>2026-04-26T06:44:30.301Z</time></trkpt><trkpt lat="45.5197577" lon="11.1922982"><ele>321.0</ele><time>2026-04-26T06:44:34.288Z</time></trkpt><trkpt lat="45.5197352" lon="11.192386"><ele>321.0</ele><time>2026-04-26T06:44:38.294Z</time></trkpt><trkpt lat="45.5197976" lon="11.192449"><ele>321.0</ele><time>2026-04-26T06:44:44.29Z</time></trkpt><trkpt lat="45.5198709" lon="11.1924787"><ele>321.0</ele><time>2026-04-26T06:44:47.291Z</time></trkpt><trkpt lat="45.5199307" lon="11.1925365"><ele>320.99999999999994</ele><time>2026-04-26T06:44:50.306Z</time></trkpt><trkpt lat="45.5199918" lon="11.1925723"><ele>321.0</ele><time>2026-04-26T06:44:53.286Z</time></trkpt><trkpt lat="45.5200674" lon="11.1926182"><ele>321.71428571428567</ele><time>2026-04-26T06:44:57.287Z</time></trkpt><trkpt lat="45.520136" lon="11.1926685"><ele>322.42857142857144</ele><time>2026-04-26T06:45:01.302Z</time></trkpt><trkpt lat="45.5201886" lon="11.1927339"><ele>323.1428571428571</ele><time>2026-04-26T06:45:06.295Z</time></trkpt><trkpt lat="45.5201968" lon="11.1928407"><ele>323.85714285714283</ele><time>2026-04-26T06:45:11.288Z</time></trkpt><trkpt lat="45.5202307" lon="11.1929285"><ele>324.57142857142856</ele><time>2026-04-26T06:45:15.283Z</time></trkpt><trkpt lat="45.5202726" lon="11.1929994"><ele>325.2857142857143</ele><time>2026-04-26T06:45:19.299Z</time></trkpt><trkpt lat="45.5202098" lon="11.1930129"><ele>326.0</ele><time>2026-04-26T06:45:26.284Z</time></trkpt><trkpt lat="45.5201807" lon="11.1929331"><ele>326.0</ele><time>2026-04-26T06:45:30.291Z</time></trkpt><trkpt lat="45.5201242" lon="11.192891"><ele>326.0</ele><time>2026-04-26T06:45:34.285Z</time></trkpt><trkpt lat="45.5200574" lon="11.1928461"><ele>326.0</ele><time>2026-04-26T06:45:39.283Z</time></trkpt><trkpt lat="45.5199835" lon="11.1927969"><ele>326.0</ele><time>2026-04-26T06:45:43.287Z</time></trkpt><trkpt lat="45.5199133" lon="11.1927736"><ele>326.0</ele><time>2026-04-26T06:45:48.288Z</time></trkpt><trkpt lat="45.5198456" lon="11.192757"><ele>326.0</ele><time>2026-04-26T06:45:53.286Z</time></trkpt><trkpt lat="45.519783" lon="11.1927846"><ele>326.0</ele><time>2026-04-26T06:45:57.282Z</time></trkpt><trkpt lat="45.519711" lon="11.1928317"><ele>326.0</ele><time>2026-04-26T06:46:01.297Z</time></trkpt><trkpt lat="45.5196556" lon="11.1928993"><ele>326.0</ele><time>2026-04-26T06:46:04.295Z</time></trkpt><trkpt lat="45.5195904" lon="11.192957"><ele>326.0</ele><time>2026-04-26T06:46:07.285Z</time></trkpt><trkpt lat="45.519538" lon="11.1930429"><ele>326.0</ele><time>2026-04-26T06:46:10.295Z</time></trkpt><trkpt lat="45.5195415" lon="11.1931372"><ele>326.0</ele><time>2026-04-26T06:46:15.285Z</time></trkpt><trkpt lat="45.5196205" lon="11.1931423"><ele>326.0</ele><time>2026-04-26T06:46:19.288Z</time></trkpt><trkpt lat="45.5196914" lon="11.1931422"><ele>326.0</ele><time>2026-04-26T06:46:24.283Z</time></trkpt><trkpt lat="45.5197589" lon="11.1931874"><ele>330.42857142857144</ele><time>2026-04-26T06:46:28.286Z</time></trkpt><trkpt lat="45.5198234" lon="11.1932638"><ele>334.85714285714283</ele><time>2026-04-26T06:46:32.287Z</time></trkpt><trkpt lat="45.5198915" lon="11.1933175"><ele>339.2857142857143</ele><time>2026-04-26T06:46:36.283Z</time></trkpt><trkpt lat="45.5199445" lon="11.1933676"><ele>343.7142857142857</ele><time>2026-04-26T06:46:39.292Z</time></trkpt><trkpt lat="45.5200121" lon="11.19343"><ele>348.1428571428571</ele><time>2026-04-26T06:46:43.278Z</time></trkpt><trkpt lat="45.5200717" lon="11.1934747"><ele>352.57142857142856</ele><time>2026-04-26T06:46:46.292Z</time></trkpt><trkpt lat="45.5201315" lon="11.1935138"><ele>357.0</ele><time>2026-04-26T06:46:50.294Z</time></trkpt><trkpt lat="45.5201304" lon="11.1936184"><ele>357.0</ele><time>2026-04-26T06:46:56.286Z</time></trkpt><trkpt lat="45.5200629" lon="11.1936113"><ele>357.0</ele><time>2026-04-26T06:47:00.284Z</time></trkpt><trkpt lat="45.5199957" lon="11.1936056"><ele>357.0</ele><time>2026-04-26T06:47:05.282Z</time></trkpt><trkpt lat="45.5199261" lon="11.1935978"><ele>357.0</ele><time>2026-04-26T06:47:10.297Z</time></trkpt><trkpt lat="45.5198595" lon="11.1935976"><ele>357.0</ele><time>2026-04-26T06:47:14.281Z</time></trkpt><trkpt lat="45.5197834" lon="11.1935973"><ele>357.0</ele><time>2026-04-26T06:47:19.28Z</time></trkpt><trkpt lat="45.5197171" lon="11.1936185"><ele>357.0</ele><time>2026-04-26T06:47:23.285Z</time></trkpt><trkpt lat="45.5196584" lon="11.1936584"><ele>357.0</ele><time>2026-04-26T06:47:28.276Z</time></trkpt><trkpt lat="45.5195868" lon="11.193715"><ele>357.0</ele><time>2026-04-26T06:47:33.291Z</time></trkpt><trkpt lat="45.5195188" lon="11.1937421"><ele>357.0</ele><time>2026-04-26T06:47:37.29Z</time></trkpt><trkpt lat="45.5194452" lon="11.193738"><ele>357.0</ele><time>2026-04-26T06:47:41.284Z</time></trkpt><trkpt lat="45.5193788" lon="11.193798"><ele>357.0</ele><time>2026-04-26T06:47:45.282Z</time></trkpt><trkpt lat="45.5193059" lon="11.1938406"><ele>357.0</ele><time>2026-04-26T06:47:49.293Z</time></trkpt><trkpt lat="45.5192359" lon="11.1938141"><ele>358.57142857142856</ele><time>2026-04-26T06:47:53.291Z</time></trkpt><trkpt lat="45.5191792" lon="11.1937713"><ele>360.1428571428571</ele><time>2026-04-26T06:47:57.28Z</time></trkpt><trkpt lat="45.5191278" lon="11.1937186"><ele>361.7142857142857</ele><time>2026-04-26T06:48:02.295Z</time></trkpt><trkpt lat="45.5190794" lon="11.1936433"><ele>363.2857142857143</ele><time>2026-04-26T06:48:07.29Z</time></trkpt><trkpt lat="45.5190244" lon="11.1935895"><ele>364.85714285714283</ele><time>2026-04-26T06:48:12.283Z</time></trkpt><trkpt lat="45.5189568" lon="11.1935659"><ele>366.42857142857144</ele><time>2026-04-26T06:48:17.284Z</time></trkpt><trkpt lat="45.5188905" lon="11.1935256"><ele>368.0</ele><time>2026-04-26T06:48:20.292Z</time></trkpt><trkpt lat="45.5188177" lon="11.19348"><ele>368.0</ele><time>2026-04-26T06:48:24.284Z</time></trkpt><trkpt lat="45.5187589" lon="11.1934346"><ele>368.0</ele><time>2026-04-26T06:48:28.287Z</time></trkpt><trkpt lat="45.5186975" lon="11.1934129"><ele>368.0</ele><time>2026-04-26T06:48:31.29Z</time></trkpt><trkpt lat="45.5186328" lon="11.1933782"><ele>368.0</ele><time>2026-04-26T06:48:34.284Z</time></trkpt><trkpt lat="45.518556" lon="11.1933764"><ele>368.0</ele><time>2026-04-26T06:48:38.287Z</time></trkpt><trkpt lat="45.5184881" lon="11.193391"><ele>368.0</ele><time>2026-04-26T06:48:41.276Z</time></trkpt><trkpt lat="45.5184196" lon="11.1934246"><ele>368.0</ele><time>2026-04-26T06:48:44.277Z</time></trkpt><trkpt lat="45.5183526" lon="11.1934687"><ele>370.14285714285717</ele><time>2026-04-26T06:48:48.294Z</time></trkpt><trkpt lat="45.5182735" lon="11.1935275"><ele>372.2857142857143</ele><time>2026-04-26T06:48:51.276Z</time></trkpt><trkpt lat="45.5182077" lon="11.1935558"><ele>374.42857142857144</ele><time>2026-04-26T06:48:54.292Z</time></trkpt><trkpt lat="45.5181515" lon="11.1936099"><ele>376.57142857142856</ele><time>2026-04-26T06:48:58.293Z</time></trkpt><trkpt lat="45.5180888" lon="11.1936343"><ele>378.71428571428567</ele><time>2026-04-26T06:49:01.294Z</time></trkpt><trkpt lat="45.5180243" lon="11.193676"><ele>380.85714285714283</ele><time>2026-04-26T06:49:04.283Z</time></trkpt><trkpt lat="45.5179593" lon="11.193724"><ele>383.0</ele><time>2026-04-26T06:49:07.284Z</time></trkpt><trkpt lat="45.5178955" lon="11.1937759"><ele>383.42857142857144</ele><time>2026-04-26T06:49:10.297Z</time></trkpt><trkpt lat="45.5178343" lon="11.193835"><ele>383.85714285714283</ele><time>2026-04-26T06:49:13.286Z</time></trkpt><trkpt lat="45.517769" lon="11.1938927"><ele>384.28571428571433</ele><time>2026-04-26T06:49:16.292Z</time></trkpt><trkpt lat="45.5176941" lon="11.1939262"><ele>384.7142857142857</ele><time>2026-04-26T06:49:19.287Z</time></trkpt><trkpt lat="45.5176201" lon="11.1939545"><ele>385.14285714285717</ele><time>2026-04-26T06:49:22.291Z</time></trkpt><trkpt lat="45.5175417" lon="11.1939637"><ele>385.5714285714286</ele><time>2026-04-26T06:49:25.292Z</time></trkpt><trkpt lat="45.5174789" lon="11.1939747"><ele>386.0</ele><time>2026-04-26T06:49:28.285Z</time></trkpt><trkpt lat="45.517412" lon="11.1939838"><ele>385.99999999999994</ele><time>2026-04-26T06:49:33.278Z</time></trkpt><trkpt lat="45.5173381" lon="11.1939794"><ele>386.0</ele><time>2026-04-26T06:49:36.284Z</time></trkpt><trkpt lat="45.5172725" lon="11.1939849"><ele>386.0</ele><time>2026-04-26T06:49:39.287Z</time></trkpt><trkpt lat="45.5171972" lon="11.1940216"><ele>386.0</ele><time>2026-04-26T06:49:43.288Z</time></trkpt><trkpt lat="45.517132" lon="11.1940778"><ele>385.99999999999994</ele><time>2026-04-26T06:49:47.308Z</time></trkpt><trkpt lat="45.5170685" lon="11.194122"><ele>386.0</ele><time>2026-04-26T06:49:51.302Z</time></trkpt><trkpt lat="45.5170039" lon="11.1942218"><ele>388.49999999999994</ele><time>2026-04-26T06:49:54.279Z</time></trkpt><trkpt lat="45.5169724" lon="11.1943452"><ele>391.0</ele><time>2026-04-26T06:49:56.282Z</time></trkpt><trkpt lat="45.5169513" lon="11.194472"><ele>393.5</ele><time>2026-04-26T06:49:58.281Z</time></trkpt><trkpt lat="45.5169447" lon="11.1945706"><ele>396.0</ele><time>2026-04-26T06:50:00.279Z</time></trkpt><trkpt lat="45.5169764" lon="11.1946637"><ele>398.49999999999994</ele><time>2026-04-26T06:50:04.277Z</time></trkpt><trkpt lat="45.516982" lon="11.1947645"><ele>401.0</ele><time>2026-04-26T06:50:06.282Z</time></trkpt><trkpt lat="45.5169787" lon="11.1948917"><ele>401.8333333333333</ele><time>2026-04-26T06:50:08.281Z</time></trkpt><trkpt lat="45.5169783" lon="11.1950231"><ele>402.66666666666663</ele><time>2026-04-26T06:50:10.278Z</time></trkpt><trkpt lat="45.51697" lon="11.1951414"><ele>403.5</ele><time>2026-04-26T06:50:12.279Z</time></trkpt><trkpt lat="45.5169642" lon="11.1952589"><ele>404.33333333333337</ele><time>2026-04-26T06:50:14.278Z</time></trkpt><trkpt lat="45.5169363" lon="11.1953491"><ele>405.1666666666667</ele><time>2026-04-26T06:50:16.282Z</time></trkpt><trkpt lat="45.5168505" lon="11.1953932"><ele>406.0</ele><time>2026-04-26T06:50:19.276Z</time></trkpt><trkpt lat="45.5167583" lon="11.1953954"><ele>406.0</ele><time>2026-04-26T06:50:21.28Z</time></trkpt><trkpt lat="45.5166553" lon="11.1953786"><ele>406.0</ele><time>2026-04-26T06:50:23.276Z</time></trkpt><trkpt lat="45.5165558" lon="11.1953601"><ele>406.0</ele><time>2026-04-26T06:50:25.274Z</time></trkpt><trkpt lat="45.5164373" lon="11.1953609"><ele>406.0</ele><time>2026-04-26T06:50:27.277Z</time></trkpt><trkpt lat="45.5163253" lon="11.1954045"><ele>406.0</ele><time>2026-04-26T06:50:29.289Z</time></trkpt><trkpt lat="45.5162305" lon="11.1954928"><ele>402.0</ele><time>2026-04-26T06:50:31.286Z</time></trkpt><trkpt lat="45.5161508" lon="11.1955709"><ele>398.0</ele><time>2026-04-26T06:50:33.286Z</time></trkpt><trkpt lat="45.5160578" lon="11.1956213"><ele>394.0</ele><time>2026-04-26T06:50:35.286Z</time></trkpt><trkpt lat="45.5159454" lon="11.1956484"><ele>390.0</ele><time>2026-04-26T06:50:37.282Z</time></trkpt><trkpt lat="45.5158291" lon="11.195634"><ele>386.0</ele><time>2026-04-26T06:50:39.289Z</time></trkpt><trkpt lat="45.5157616" lon="11.1956411"><ele>385.6</ele><time>2026-04-26T06:50:40.297Z</time></trkpt><trkpt lat="45.5156403" lon="11.1956746"><ele>385.20000000000005</ele><time>2026-04-26T06:50:42.281Z</time></trkpt><trkpt lat="45.5155224" lon="11.1956991"><ele>384.79999999999995</ele><time>2026-04-26T06:50:44.284Z</time></trkpt><trkpt lat="45.5154196" lon="11.1957295"><ele>384.4</ele><time>2026-04-26T06:50:46.279Z</time></trkpt><trkpt lat="45.5153516" lon="11.1957918"><ele>384.0</ele><time>2026-04-26T06:50:48.28Z</time></trkpt><trkpt lat="45.5152947" lon="11.1958886"><ele>384.0</ele><time>2026-04-26T06:50:50.298Z</time></trkpt><trkpt lat="45.5152679" lon="11.1960306"><ele>384.0</ele><time>2026-04-26T06:50:52.281Z</time></trkpt><trkpt lat="45.5152771" lon="11.1961903"><ele>384.0</ele><time>2026-04-26T06:50:54.283Z</time></trkpt><trkpt lat="45.5153013" lon="11.1963459"><ele>384.0</ele><time>2026-04-26T06:50:56.288Z</time></trkpt><trkpt lat="45.5153305" lon="11.1964931"><ele>384.0</ele><time>2026-04-26T06:50:58.285Z</time></trkpt><trkpt lat="45.5153643" lon="11.1966435"><ele>383.4</ele><time>2026-04-26T06:51:00.286Z</time></trkpt><trkpt lat="45.5153907" lon="11.1967966"><ele>382.79999999999995</ele><time>2026-04-26T06:51:02.286Z</time></trkpt><trkpt lat="45.5154289" lon="11.1969521"><ele>382.20000000000005</ele><time>2026-04-26T06:51:04.28Z</time></trkpt><trkpt lat="45.5154833" lon="11.1970905"><ele>381.6</ele><time>2026-04-26T06:51:06.282Z</time></trkpt><trkpt lat="45.5155159" lon="11.1972136"><ele>381.0</ele><time>2026-04-26T06:51:08.286Z</time></trkpt><trkpt lat="45.515506" lon="11.197313"><ele>379.20000000000005</ele><time>2026-04-26T06:51:10.282Z</time></trkpt><trkpt lat="45.5154472" lon="11.1974143"><ele>377.40000000000003</ele><time>2026-04-26T06:51:12.294Z</time></trkpt><trkpt lat="45.515363" lon="11.1975196"><ele>375.6</ele><time>2026-04-26T06:51:14.284Z</time></trkpt><trkpt lat="45.5152818" lon="11.1976262"><ele>373.8</ele><time>2026-04-26T06:51:16.29Z</time></trkpt><trkpt lat="45.5152104" lon="11.197724"><ele>372.0</ele><time>2026-04-26T06:51:18.285Z</time></trkpt><trkpt lat="45.5151552" lon="11.1978235"><ele>372.0</ele><time>2026-04-26T06:51:20.285Z</time></trkpt><trkpt lat="45.5151093" lon="11.1979491"><ele>372.0</ele><time>2026-04-26T06:51:22.284Z</time></trkpt><trkpt lat="45.5151095" lon="11.1980745"><ele>372.0</ele><time>2026-04-26T06:51:24.278Z</time></trkpt><trkpt lat="45.5151368" lon="11.1982093"><ele>372.0</ele><time>2026-04-26T06:51:26.283Z</time></trkpt><trkpt lat="45.5151795" lon="11.1983366"><ele>372.0</ele><time>2026-04-26T06:51:28.288Z</time></trkpt><trkpt lat="45.5152134" lon="11.1984891"><ele>371.8</ele><time>2026-04-26T06:51:30.294Z</time></trkpt><trkpt lat="45.5152298" lon="11.1986343"><ele>371.6</ele><time>2026-04-26T06:51:32.286Z</time></trkpt><trkpt lat="45.5152506" lon="11.1987822"><ele>371.40000000000003</ele><time>2026-04-26T06:51:34.29Z</time></trkpt><trkpt lat="45.5152827" lon="11.1989398"><ele>371.20000000000005</ele><time>2026-04-26T06:51:36.284Z</time></trkpt><trkpt lat="45.5153167" lon="11.199066"><ele>371.0</ele><time>2026-04-26T06:51:38.292Z</time></trkpt><trkpt lat="45.5152988" lon="11.1991587"><ele>371.0</ele><time>2026-04-26T06:51:40.3Z</time></trkpt><trkpt lat="45.5152329" lon="11.1991228"><ele>371.0</ele><time>2026-04-26T06:51:43.292Z</time></trkpt><trkpt lat="45.5151775" lon="11.1990656"><ele>371.0</ele><time>2026-04-26T06:51:45.293Z</time></trkpt><trkpt lat="45.5151155" lon="11.1990126"><ele>371.0</ele><time>2026-04-26T06:51:47.294Z</time></trkpt><trkpt lat="45.5150523" lon="11.1989879"><ele>371.0</ele><time>2026-04-26T06:51:49.285Z</time></trkpt><trkpt lat="45.5149721" lon="11.1990042"><ele>371.0</ele><time>2026-04-26T06:51:51.292Z</time></trkpt><trkpt lat="45.5148982" lon="11.1990368"><ele>371.0</ele><time>2026-04-26T06:51:53.285Z</time></trkpt><trkpt lat="45.5148302" lon="11.1990685"><ele>371.0</ele><time>2026-04-26T06:51:55.284Z</time></trkpt><trkpt lat="45.5147622" lon="11.199036"><ele>371.0</ele><time>2026-04-26T06:51:59.294Z</time></trkpt><trkpt lat="45.5147127" lon="11.1989693"><ele>371.0</ele><time>2026-04-26T06:52:03.297Z</time></trkpt><trkpt lat="45.5146562" lon="11.1989222"><ele>371.0</ele><time>2026-04-26T06:52:06.303Z</time></trkpt><trkpt lat="45.5146005" lon="11.1988594"><ele>371.0</ele><time>2026-04-26T06:52:09.293Z</time></trkpt><trkpt lat="45.5145339" lon="11.1988434"><ele>371.0</ele><time>2026-04-26T06:52:13.287Z</time></trkpt><trkpt lat="45.5144625" lon="11.1988351"><ele>371.0</ele><time>2026-04-26T06:52:16.295Z</time></trkpt><trkpt lat="45.5143806" lon="11.1988244"><ele>368.85714285714283</ele><time>2026-04-26T06:52:19.293Z</time></trkpt><trkpt lat="45.514316" lon="11.1987968"><ele>366.7142857142857</ele><time>2026-04-26T06:52:22.293Z</time></trkpt><trkpt lat="45.5142367" lon="11.1987632"><ele>364.57142857142856</ele><time>2026-04-26T06:52:25.299Z</time></trkpt><trkpt lat="45.5141548" lon="11.1987427"><ele>362.42857142857144</ele><time>2026-04-26T06:52:27.285Z</time></trkpt><trkpt lat="45.5140893" lon="11.1987187"><ele>360.2857142857143</ele><time>2026-04-26T06:52:29.298Z</time></trkpt><trkpt lat="45.5140088" lon="11.1986847"><ele>358.1428571428571</ele><time>2026-04-26T06:52:32.292Z</time></trkpt><trkpt lat="45.5139504" lon="11.1986505"><ele>356.0</ele><time>2026-04-26T06:52:34.275Z</time></trkpt><trkpt lat="45.5138735" lon="11.1985831"><ele>356.0</ele><time>2026-04-26T06:52:37.281Z</time></trkpt><trkpt lat="45.5137938" lon="11.1985317"><ele>356.0</ele><time>2026-04-26T06:52:40.301Z</time></trkpt><trkpt lat="45.5137014" lon="11.1985058"><ele>356.0</ele><time>2026-04-26T06:52:43.297Z</time></trkpt><trkpt lat="45.5136296" lon="11.1985099"><ele>356.0</ele><time>2026-04-26T06:52:45.29Z</time></trkpt><trkpt lat="45.5135478" lon="11.1985036"><ele>356.0</ele><time>2026-04-26T06:52:48.296Z</time></trkpt><trkpt lat="45.5134859" lon="11.1985219"><ele>356.0</ele><time>2026-04-26T06:52:50.304Z</time></trkpt><trkpt lat="45.5134052" lon="11.1985446"><ele>358.6</ele><time>2026-04-26T06:52:52.297Z</time></trkpt><trkpt lat="45.5132981" lon="11.1985393"><ele>361.20000000000005</ele><time>2026-04-26T06:52:54.297Z</time></trkpt><trkpt lat="45.513205" lon="11.1985193"><ele>363.79999999999995</ele><time>2026-04-26T06:52:56.293Z</time></trkpt><trkpt lat="45.5131369" lon="11.1984904"><ele>366.4</ele><time>2026-04-26T06:52:58.278Z</time></trkpt><trkpt lat="45.5130351" lon="11.1984347"><ele>369.0</ele><time>2026-04-26T06:53:05.295Z</time></trkpt><trkpt lat="45.5129678" lon="11.198408"><ele>370.1666666666667</ele><time>2026-04-26T06:53:08.291Z</time></trkpt><trkpt lat="45.512903" lon="11.1983593"><ele>371.3333333333333</ele><time>2026-04-26T06:53:13.292Z</time></trkpt><trkpt lat="45.5128347" lon="11.1982925"><ele>372.5</ele><time>2026-04-26T06:53:20.31Z</time></trkpt><trkpt lat="45.5127508" lon="11.1982595"><ele>373.66666666666663</ele><time>2026-04-26T06:53:23.286Z</time></trkpt><trkpt lat="45.5126761" lon="11.1982447"><ele>374.8333333333333</ele><time>2026-04-26T06:53:26.29Z</time></trkpt><trkpt lat="45.5126113" lon="11.1982037"><ele>376.0</ele><time>2026-04-26T06:53:30.318Z</time></trkpt><trkpt lat="45.5125387" lon="11.1981702"><ele>376.0</ele><time>2026-04-26T06:53:34.295Z</time></trkpt><trkpt lat="45.512461" lon="11.1981612"><ele>376.0</ele><time>2026-04-26T06:53:39.287Z</time></trkpt><trkpt lat="45.5123798" lon="11.1981907"><ele>376.0</ele><time>2026-04-26T06:53:43.288Z</time></trkpt><trkpt lat="45.512295" lon="11.1982162"><ele>376.0</ele><time>2026-04-26T06:53:46.281Z</time></trkpt><trkpt lat="45.5122242" lon="11.1982533"><ele>376.0</ele><time>2026-04-26T06:53:49.284Z</time></trkpt><trkpt lat="45.5121495" lon="11.1982884"><ele>376.0</ele><time>2026-04-26T06:53:52.28Z</time></trkpt><trkpt lat="45.5120741" lon="11.1983192"><ele>376.0</ele><time>2026-04-26T06:53:55.283Z</time></trkpt><trkpt lat="45.5120053" lon="11.1983493"><ele>376.0</ele><time>2026-04-26T06:53:58.28Z</time></trkpt><trkpt lat="45.5119447" lon="11.1984074"><ele>376.0</ele><time>2026-04-26T06:54:01.287Z</time></trkpt><trkpt lat="45.5118861" lon="11.1984682"><ele>376.0</ele><time>2026-04-26T06:54:04.286Z</time></trkpt><trkpt lat="45.5118388" lon="11.198548"><ele>376.0</ele><time>2026-04-26T06:54:08.287Z</time></trkpt><trkpt lat="45.511815" lon="11.1986475"><ele>376.0</ele><time>2026-04-26T06:54:14.291Z</time></trkpt><trkpt lat="45.5117697" lon="11.1987322"><ele>376.0</ele><time>2026-04-26T06:54:20.299Z</time></trkpt><trkpt lat="45.5117255" lon="11.1987989"><ele>376.0</ele><time>2026-04-26T06:54:24.296Z</time></trkpt><trkpt lat="45.5116603" lon="11.1988569"><ele>376.0</ele><time>2026-04-26T06:54:28.291Z</time></trkpt><trkpt lat="45.5116044" lon="11.1989235"><ele>376.0</ele><time>2026-04-26T06:54:33.287Z</time></trkpt><trkpt lat="45.5115348" lon="11.1989723"><ele>376.0</ele><time>2026-04-26T06:54:37.288Z</time></trkpt><trkpt lat="45.5114555" lon="11.1990126"><ele>376.0</ele><time>2026-04-26T06:54:41.291Z</time></trkpt><trkpt lat="45.5113742" lon="11.1990426"><ele>376.0</ele><time>2026-04-26T06:56:12.283Z</time></trkpt><trkpt lat="45.5112948" lon="11.1990498"><ele>378.3333333333333</ele><time>2026-04-26T06:56:15.289Z</time></trkpt><trkpt lat="45.511215" lon="11.1990616"><ele>380.66666666666663</ele><time>2026-04-26T06:56:18.285Z</time></trkpt><trkpt lat="45.5111483" lon="11.1990684"><ele>383.0</ele><time>2026-04-26T06:56:20.3Z</time></trkpt><trkpt lat="45.5110578" lon="11.1990926"><ele>385.3333333333333</ele><time>2026-04-26T06:56:23.288Z</time></trkpt><trkpt lat="45.5109649" lon="11.1991309"><ele>387.6666666666667</ele><time>2026-04-26T06:56:26.292Z</time></trkpt><trkpt lat="45.5108851" lon="11.1991795"><ele>390.0</ele><time>2026-04-26T06:56:28.286Z</time></trkpt><trkpt lat="45.5108338" lon="11.1992462"><ele>390.0</ele><time>2026-04-26T06:56:30.283Z</time></trkpt><trkpt lat="45.5107811" lon="11.1993385"><ele>390.0</ele><time>2026-04-26T06:56:33.284Z</time></trkpt><trkpt lat="45.5107351" lon="11.199435"><ele>390.0</ele><time>2026-04-26T06:56:36.281Z</time></trkpt><trkpt lat="45.5106908" lon="11.1995172"><ele>390.0</ele><time>2026-04-26T06:56:39.285Z</time></trkpt><trkpt lat="45.5106345" lon="11.1995884"><ele>390.0</ele><time>2026-04-26T06:56:42.284Z</time></trkpt><trkpt lat="45.5105836" lon="11.1996492"><ele>390.0</ele><time>2026-04-26T06:56:45.281Z</time></trkpt><trkpt lat="45.510518" lon="11.1997051"><ele>390.0</ele><time>2026-04-26T06:56:49.284Z</time></trkpt><trkpt lat="45.5104554" lon="11.1997629"><ele>390.0</ele><time>2026-04-26T06:56:53.282Z</time></trkpt><trkpt lat="45.5103907" lon="11.1998276"><ele>390.0</ele><time>2026-04-26T06:56:57.277Z</time></trkpt><trkpt lat="45.510343" lon="11.1999042"><ele>390.0</ele><time>2026-04-26T06:57:01.281Z</time></trkpt><trkpt lat="45.5102965" lon="11.1999854"><ele>390.0</ele><time>2026-04-26T06:57:05.284Z</time></trkpt><trkpt lat="45.510255" lon="11.200056"><ele>390.0</ele><time>2026-04-26T06:57:09.281Z</time></trkpt><trkpt lat="45.5102176" lon="11.2001382"><ele>390.0</ele><time>2026-04-26T06:57:13.288Z</time></trkpt><trkpt lat="45.5101862" lon="11.2002315"><ele>391.0</ele><time>2026-04-26T06:57:17.286Z</time></trkpt><trkpt lat="45.5101688" lon="11.200328"><ele>392.0</ele><time>2026-04-26T06:57:21.284Z</time></trkpt><trkpt lat="45.5101722" lon="11.2004397"><ele>393.0</ele><time>2026-04-26T06:57:25.283Z</time></trkpt><trkpt lat="45.510158" lon="11.2005467"><ele>394.0</ele><time>2026-04-26T06:57:29.282Z</time></trkpt><trkpt lat="45.5101135" lon="11.2006234"><ele>395.0</ele><time>2026-04-26T06:57:33.277Z</time></trkpt><trkpt lat="45.5100572" lon="11.2006991"><ele>396.0</ele><time>2026-04-26T06:57:37.288Z</time></trkpt><trkpt lat="45.5100053" lon="11.2007725"><ele>397.0</ele><time>2026-04-26T06:57:40.292Z</time></trkpt><trkpt lat="45.5099588" lon="11.2008613"><ele>399.1666666666667</ele><time>2026-04-26T06:57:43.281Z</time></trkpt><trkpt lat="45.5099304" lon="11.2009656"><ele>401.33333333333337</ele><time>2026-04-26T06:57:46.286Z</time></trkpt><trkpt lat="45.5099222" lon="11.2010678"><ele>403.5</ele><time>2026-04-26T06:57:49.28Z</time></trkpt><trkpt lat="45.5099263" lon="11.2011926"><ele>405.66666666666663</ele><time>2026-04-26T06:57:52.281Z</time></trkpt><trkpt lat="45.5099425" lon="11.201306"><ele>407.8333333333333</ele><time>2026-04-26T06:57:55.277Z</time></trkpt><trkpt lat="45.5099685" lon="11.201419"><ele>410.0</ele><time>2026-04-26T06:57:58.28Z</time></trkpt><trkpt lat="45.5100065" lon="11.2015114"><ele>411.2857142857143</ele><time>2026-04-26T06:58:01.272Z</time></trkpt><trkpt lat="45.5100525" lon="11.2016083"><ele>412.57142857142856</ele><time>2026-04-26T06:58:05.276Z</time></trkpt><trkpt lat="45.5101051" lon="11.2016948"><ele>413.85714285714283</ele><time>2026-04-26T06:58:09.279Z</time></trkpt><trkpt lat="45.510164" lon="11.2017692"><ele>415.1428571428571</ele><time>2026-04-26T06:58:13.272Z</time></trkpt><trkpt lat="45.510209" lon="11.2018406"><ele>416.42857142857144</ele><time>2026-04-26T06:58:18.279Z</time></trkpt><trkpt lat="45.5102419" lon="11.2019287"><ele>417.71428571428567</ele><time>2026-04-26T06:58:22.283Z</time></trkpt><trkpt lat="45.5102698" lon="11.202013"><ele>419.0</ele><time>2026-04-26T06:58:26.281Z</time></trkpt><trkpt lat="45.5103065" lon="11.2021007"><ele>418.99999999999994</ele><time>2026-04-26T06:58:30.281Z</time></trkpt><trkpt lat="45.5103554" lon="11.202193"><ele>419.0</ele><time>2026-04-26T06:58:34.283Z</time></trkpt><trkpt lat="45.5103912" lon="11.2022685"><ele>419.0</ele><time>2026-04-26T06:58:38.278Z</time></trkpt><trkpt lat="45.5104327" lon="11.2023675"><ele>419.0</ele><time>2026-04-26T06:58:42.287Z</time></trkpt><trkpt lat="45.5104527" lon="11.2024769"><ele>419.0</ele><time>2026-04-26T06:58:46.292Z</time></trkpt><trkpt lat="45.5104023" lon="11.2025491"><ele>418.99999999999994</ele><time>2026-04-26T06:58:50.288Z</time></trkpt><trkpt lat="45.5103313" lon="11.202528"><ele>419.0</ele><time>2026-04-26T06:58:54.289Z</time></trkpt><trkpt lat="45.5102468" lon="11.2024771"><ele>421.57142857142856</ele><time>2026-04-26T06:58:58.281Z</time></trkpt><trkpt lat="45.5101557" lon="11.2024474"><ele>424.1428571428571</ele><time>2026-04-26T06:59:01.277Z</time></trkpt><trkpt lat="45.5100883" lon="11.2024377"><ele>426.71428571428567</ele><time>2026-04-26T06:59:03.289Z</time></trkpt><trkpt lat="45.5100223" lon="11.2024393"><ele>429.2857142857143</ele><time>2026-04-26T06:59:05.285Z</time></trkpt><trkpt lat="45.5099525" lon="11.2024436"><ele>431.8571428571429</ele><time>2026-04-26T06:59:07.279Z</time></trkpt><trkpt lat="45.5098812" lon="11.2024442"><ele>434.4285714285714</ele><time>2026-04-26T06:59:09.291Z</time></trkpt><trkpt lat="45.5098072" lon="11.2024443"><ele>437.0</ele><time>2026-04-26T06:59:11.285Z</time></trkpt><trkpt lat="45.509737" lon="11.2024478"><ele>437.0</ele><time>2026-04-26T06:59:13.281Z</time></trkpt><trkpt lat="45.5096633" lon="11.2024573"><ele>437.0</ele><time>2026-04-26T06:59:15.282Z</time></trkpt><trkpt lat="45.5095937" lon="11.2024819"><ele>437.0</ele><time>2026-04-26T06:59:17.284Z</time></trkpt><trkpt lat="45.50953" lon="11.2025291"><ele>437.0</ele><time>2026-04-26T06:59:19.289Z</time></trkpt><trkpt lat="45.5094734" lon="11.2026012"><ele>437.0</ele><time>2026-04-26T06:59:21.296Z</time></trkpt><trkpt lat="45.5094258" lon="11.2026838"><ele>437.0</ele><time>2026-04-26T06:59:23.29Z</time></trkpt><trkpt lat="45.5093806" lon="11.2027635"><ele>437.0</ele><time>2026-04-26T06:59:25.287Z</time></trkpt><trkpt lat="45.5093348" lon="11.2028496"><ele>435.66666666666663</ele><time>2026-04-26T06:59:27.291Z</time></trkpt><trkpt lat="45.5092679" lon="11.2029922"><ele>434.33333333333337</ele><time>2026-04-26T06:59:29.291Z</time></trkpt><trkpt lat="45.5092366" lon="11.2030827"><ele>433.0</ele><time>2026-04-26T06:59:33.285Z</time></trkpt><trkpt lat="45.509112" lon="11.2034532"><ele>433.0</ele><time>2026-04-26T06:59:34.285Z</time></trkpt><trkpt lat="45.5090837" lon="11.2035391"><ele>432.99999999999994</ele><time>2026-04-26T06:59:35.291Z</time></trkpt><trkpt lat="45.509018" lon="11.2036794"><ele>432.99999999999994</ele><time>2026-04-26T06:59:37.292Z</time></trkpt><trkpt lat="45.508951" lon="11.2037901"><ele>433.0</ele><time>2026-04-26T06:59:39.284Z</time></trkpt><trkpt lat="45.5088875" lon="11.2038745"><ele>433.0</ele><time>2026-04-26T06:59:41.29Z</time></trkpt><trkpt lat="45.5088796" lon="11.2040216"><ele>434.33333333333337</ele><time>2026-04-26T06:59:44.283Z</time></trkpt><trkpt lat="45.5089045" lon="11.2041495"><ele>435.6666666666667</ele><time>2026-04-26T06:59:46.282Z</time></trkpt><trkpt lat="45.5089248" lon="11.204266"><ele>437.0</ele><time>2026-04-26T06:59:48.282Z</time></trkpt><trkpt lat="45.5088968" lon="11.2043735"><ele>438.33333333333337</ele><time>2026-04-26T06:59:50.29Z</time></trkpt><trkpt lat="45.5088201" lon="11.2044003"><ele>439.6666666666667</ele><time>2026-04-26T06:59:52.281Z</time></trkpt><trkpt lat="45.508732" lon="11.2043948"><ele>441.0</ele><time>2026-04-26T06:59:54.282Z</time></trkpt><trkpt lat="45.5086253" lon="11.2043969"><ele>436.4</ele><time>2026-04-26T06:59:56.282Z</time></trkpt><trkpt lat="45.5085233" lon="11.2044082"><ele>431.8</ele><time>2026-04-26T06:59:58.279Z</time></trkpt><trkpt lat="45.508424" lon="11.2044383"><ele>427.2</ele><time>2026-04-26T07:00:00.292Z</time></trkpt><trkpt lat="45.5083329" lon="11.2044756"><ele>422.59999999999997</ele><time>2026-04-26T07:00:02.282Z</time></trkpt><trkpt lat="45.5082255" lon="11.2045203"><ele>418.0</ele><time>2026-04-26T07:00:04.283Z</time></trkpt><trkpt lat="45.5081229" lon="11.2045284"><ele>418.0</ele><time>2026-04-26T07:00:06.282Z</time></trkpt><trkpt lat="45.5080262" lon="11.2045144"><ele>418.0</ele><time>2026-04-26T07:00:08.283Z</time></trkpt><trkpt lat="45.5079403" lon="11.2044849"><ele>418.0</ele><time>2026-04-26T07:00:10.282Z</time></trkpt><trkpt lat="45.5078587" lon="11.2044435"><ele>418.0</ele><time>2026-04-26T07:00:12.284Z</time></trkpt><trkpt lat="45.5077772" lon="11.204397"><ele>418.0</ele><time>2026-04-26T07:00:14.276Z</time></trkpt><trkpt lat="45.507693" lon="11.2043525"><ele>418.79999999999995</ele><time>2026-04-26T07:00:16.28Z</time></trkpt><trkpt lat="45.5076129" lon="11.2043156"><ele>419.6</ele><time>2026-04-26T07:00:18.282Z</time></trkpt><trkpt lat="45.5075347" lon="11.2042865"><ele>420.4</ele><time>2026-04-26T07:00:20.288Z</time></trkpt><trkpt lat="45.5074382" lon="11.2042481"><ele>421.20000000000005</ele><time>2026-04-26T07:00:22.284Z</time></trkpt><trkpt lat="45.5073239" lon="11.2042039"><ele>422.0</ele><time>2026-04-26T07:00:24.284Z</time></trkpt><trkpt lat="45.5072187" lon="11.2041465"><ele>422.0</ele><time>2026-04-26T07:00:26.281Z</time></trkpt><trkpt lat="45.507122" lon="11.2040854"><ele>422.0</ele><time>2026-04-26T07:00:28.289Z</time></trkpt><trkpt lat="45.5070356" lon="11.2040315"><ele>422.0</ele><time>2026-04-26T07:00:30.278Z</time></trkpt><trkpt lat="45.5069363" lon="11.2039894"><ele>422.0</ele><time>2026-04-26T07:00:32.281Z</time></trkpt><trkpt lat="45.5068361" lon="11.2039711"><ele>422.0</ele><time>2026-04-26T07:00:34.279Z</time></trkpt><trkpt lat="45.5067486" lon="11.2039473"><ele>420.66666666666663</ele><time>2026-04-26T07:00:36.274Z</time></trkpt><trkpt lat="45.5066808" lon="11.2039348"><ele>419.3333333333333</ele><time>2026-04-26T07:00:38.281Z</time></trkpt><trkpt lat="45.5065925" lon="11.2039334"><ele>418.0</ele><time>2026-04-26T07:00:41.279Z</time></trkpt><trkpt lat="45.5065212" lon="11.2039563"><ele>416.66666666666663</ele><time>2026-04-26T07:00:44.279Z</time></trkpt><trkpt lat="45.506437" lon="11.2039519"><ele>415.3333333333333</ele><time>2026-04-26T07:00:47.28Z</time></trkpt><trkpt lat="45.5063834" lon="11.203889"><ele>414.0</ele><time>2026-04-26T07:00:50.281Z</time></trkpt><trkpt lat="45.5063789" lon="11.2037702"><ele>414.0</ele><time>2026-04-26T07:00:53.281Z</time></trkpt><trkpt lat="45.506343" lon="11.2036534"><ele>414.0</ele><time>2026-04-26T07:00:56.282Z</time></trkpt><trkpt lat="45.5062812" lon="11.2035539"><ele>414.0</ele><time>2026-04-26T07:00:59.278Z</time></trkpt><trkpt lat="45.5062342" lon="11.2034802"><ele>414.0</ele><time>2026-04-26T07:01:01.28Z</time></trkpt><trkpt lat="45.5061949" lon="11.2034029"><ele>414.0</ele><time>2026-04-26T07:01:03.279Z</time></trkpt><trkpt lat="45.5061405" lon="11.2033329"><ele>414.0</ele><time>2026-04-26T07:01:06.289Z</time></trkpt><trkpt lat="45.5060835" lon="11.2032935"><ele>413.7142857142857</ele><time>2026-04-26T07:01:09.284Z</time></trkpt><trkpt lat="45.5060365" lon="11.2032312"><ele>413.42857142857144</ele><time>2026-04-26T07:01:12.294Z</time></trkpt><trkpt lat="45.5059735" lon="11.2031678"><ele>413.1428571428571</ele><time>2026-04-26T07:01:15.289Z</time></trkpt><trkpt lat="45.5059244" lon="11.2030975"><ele>412.8571428571429</ele><time>2026-04-26T07:01:18.282Z</time></trkpt><trkpt lat="45.5058836" lon="11.2030148"><ele>412.57142857142856</ele><time>2026-04-26T07:01:22.282Z</time></trkpt><trkpt lat="45.5058306" lon="11.2029501"><ele>412.2857142857143</ele><time>2026-04-26T07:01:26.285Z</time></trkpt><trkpt lat="45.5057575" lon="11.202882"><ele>412.0</ele><time>2026-04-26T07:01:30.292Z</time></trkpt><trkpt lat="45.5056867" lon="11.2028493"><ele>411.99999999999994</ele><time>2026-04-26T07:01:34.281Z</time></trkpt><trkpt lat="45.5056207" lon="11.2028807"><ele>412.0</ele><time>2026-04-26T07:01:39.293Z</time></trkpt><trkpt lat="45.5056108" lon="11.2029791"><ele>412.0</ele><time>2026-04-26T07:03:34.296Z</time></trkpt><trkpt lat="45.5056151" lon="11.2030897"><ele>412.0</ele><time>2026-04-26T07:03:37.274Z</time></trkpt><trkpt lat="45.5056138" lon="11.2031807"><ele>412.0</ele><time>2026-04-26T07:03:39.276Z</time></trkpt><trkpt lat="45.5056268" lon="11.2032811"><ele>411.99999999999994</ele><time>2026-04-26T07:03:41.286Z</time></trkpt><trkpt lat="45.5056433" lon="11.2033699"><ele>412.0</ele><time>2026-04-26T07:03:43.288Z</time></trkpt><trkpt lat="45.5057152" lon="11.203419"><ele>414.33333333333337</ele><time>2026-04-26T07:03:46.291Z</time></trkpt><trkpt lat="45.5058051" lon="11.2034464"><ele>416.6666666666667</ele><time>2026-04-26T07:03:49.286Z</time></trkpt><trkpt lat="45.5058762" lon="11.2034803"><ele>419.0</ele><time>2026-04-26T07:03:51.28Z</time></trkpt><trkpt lat="45.5059457" lon="11.2035208"><ele>421.33333333333337</ele><time>2026-04-26T07:03:53.279Z</time></trkpt><trkpt lat="45.5060203" lon="11.2035606"><ele>423.6666666666667</ele><time>2026-04-26T07:03:55.284Z</time></trkpt><trkpt lat="45.5061046" lon="11.20357"><ele>426.0</ele><time>2026-04-26T07:03:57.275Z</time></trkpt><trkpt lat="45.5061875" lon="11.2035949"><ele>426.6666666666667</ele><time>2026-04-26T07:03:59.279Z</time></trkpt><trkpt lat="45.5062503" lon="11.2036666"><ele>427.33333333333337</ele><time>2026-04-26T07:04:01.288Z</time></trkpt><trkpt lat="45.5063089" lon="11.2037365"><ele>428.0</ele><time>2026-04-26T07:04:03.287Z</time></trkpt><trkpt lat="45.5063556" lon="11.2038046"><ele>428.6666666666667</ele><time>2026-04-26T07:04:05.285Z</time></trkpt><trkpt lat="45.5064108" lon="11.203894"><ele>429.33333333333337</ele><time>2026-04-26T07:04:08.279Z</time></trkpt><trkpt lat="45.5064496" lon="11.2039675"><ele>430.0</ele><time>2026-04-26T07:04:10.278Z</time></trkpt><trkpt lat="45.5065292" lon="11.2040371"><ele>430.00000000000006</ele><time>2026-04-26T07:04:13.28Z</time></trkpt><trkpt lat="45.5065779" lon="11.2040943"><ele>430.0</ele><time>2026-04-26T07:04:15.278Z</time></trkpt><trkpt lat="45.5066339" lon="11.204193"><ele>430.0</ele><time>2026-04-26T07:04:18.297Z</time></trkpt><trkpt lat="45.5066879" lon="11.2043"><ele>430.0</ele><time>2026-04-26T07:04:21.281Z</time></trkpt><trkpt lat="45.5067339" lon="11.2043679"><ele>430.00000000000006</ele><time>2026-04-26T07:04:26.282Z</time></trkpt><trkpt lat="45.506819" lon="11.2043923"><ele>430.0</ele><time>2026-04-26T07:04:29.288Z</time></trkpt><trkpt lat="45.5069084" lon="11.2044226"><ele>430.00000000000006</ele><time>2026-04-26T07:04:32.283Z</time></trkpt><trkpt lat="45.5069997" lon="11.204437"><ele>430.0</ele><time>2026-04-26T07:04:35.292Z</time></trkpt><trkpt lat="45.507092" lon="11.2044476"><ele>430.0</ele><time>2026-04-26T07:04:38.287Z</time></trkpt><trkpt lat="45.5071771" lon="11.2044471"><ele>430.0</ele><time>2026-04-26T07:04:41.287Z</time></trkpt><trkpt lat="45.5072605" lon="11.2044495"><ele>430.00000000000006</ele><time>2026-04-26T07:04:44.286Z</time></trkpt><trkpt lat="45.5073409" lon="11.2044759"><ele>430.0</ele><time>2026-04-26T07:04:47.281Z</time></trkpt><trkpt lat="45.5074234" lon="11.2045148"><ele>428.85714285714283</ele><time>2026-04-26T07:04:50.289Z</time></trkpt><trkpt lat="45.5074816" lon="11.2045509"><ele>427.7142857142857</ele><time>2026-04-26T07:04:52.283Z</time></trkpt><trkpt lat="45.5075397" lon="11.2045873"><ele>426.57142857142856</ele><time>2026-04-26T07:04:54.284Z</time></trkpt><trkpt lat="45.5075988" lon="11.2046277"><ele>425.42857142857144</ele><time>2026-04-26T07:04:56.276Z</time></trkpt><trkpt lat="45.5076564" lon="11.204669"><ele>424.28571428571433</ele><time>2026-04-26T07:04:58.282Z</time></trkpt><trkpt lat="45.5077289" lon="11.2047403"><ele>423.14285714285717</ele><time>2026-04-26T07:05:01.276Z</time></trkpt><trkpt lat="45.5077976" lon="11.2048049"><ele>422.0</ele><time>2026-04-26T07:05:04.285Z</time></trkpt><trkpt lat="45.5078648" lon="11.2048665"><ele>425.42857142857144</ele><time>2026-04-26T07:05:07.283Z</time></trkpt><trkpt lat="45.5079323" lon="11.2049268"><ele>428.8571428571429</ele><time>2026-04-26T07:05:10.288Z</time></trkpt><trkpt lat="45.5079954" lon="11.2049776"><ele>432.2857142857143</ele><time>2026-04-26T07:05:13.286Z</time></trkpt><trkpt lat="45.5080542" lon="11.2050292"><ele>435.7142857142857</ele><time>2026-04-26T07:05:16.282Z</time></trkpt><trkpt lat="45.5081163" lon="11.2050756"><ele>439.1428571428571</ele><time>2026-04-26T07:05:19.289Z</time></trkpt><trkpt lat="45.5081825" lon="11.2051319"><ele>442.57142857142856</ele><time>2026-04-26T07:05:22.292Z</time></trkpt><trkpt lat="45.5082508" lon="11.2051916"><ele>446.0</ele><time>2026-04-26T07:05:25.291Z</time></trkpt><trkpt lat="45.5083295" lon="11.205236"><ele>446.0</ele><time>2026-04-26T07:05:29.282Z</time></trkpt><trkpt lat="45.5083978" lon="11.205275"><ele>446.0</ele><time>2026-04-26T07:05:32.28Z</time></trkpt><trkpt lat="45.5084682" lon="11.2053087"><ele>446.0</ele><time>2026-04-26T07:05:35.282Z</time></trkpt><trkpt lat="45.508536" lon="11.2053592"><ele>446.0</ele><time>2026-04-26T07:05:38.289Z</time></trkpt><trkpt lat="45.5085961" lon="11.2054131"><ele>446.0</ele><time>2026-04-26T07:05:41.288Z</time></trkpt><trkpt lat="45.508653" lon="11.2054585"><ele>446.0</ele><time>2026-04-26T07:05:44.291Z</time></trkpt><trkpt lat="45.5087063" lon="11.205522"><ele>446.0</ele><time>2026-04-26T07:05:47.283Z</time></trkpt><trkpt lat="45.5087573" lon="11.2055816"><ele>446.57142857142856</ele><time>2026-04-26T07:05:50.284Z</time></trkpt><trkpt lat="45.5088142" lon="11.2056319"><ele>447.1428571428571</ele><time>2026-04-26T07:05:53.289Z</time></trkpt><trkpt lat="45.5088695" lon="11.2056834"><ele>447.7142857142858</ele><time>2026-04-26T07:05:56.288Z</time></trkpt><trkpt lat="45.508928" lon="11.2057309"><ele>448.28571428571433</ele><time>2026-04-26T07:05:59.283Z</time></trkpt><trkpt lat="45.5089864" lon="11.2057741"><ele>448.8571428571429</ele><time>2026-04-26T07:06:02.285Z</time></trkpt><trkpt lat="45.5090508" lon="11.205834"><ele>449.4285714285715</ele><time>2026-04-26T07:06:06.288Z</time></trkpt><trkpt lat="45.5091159" lon="11.2058956"><ele>450.00000000000006</ele><time>2026-04-26T07:06:10.286Z</time></trkpt><trkpt lat="45.509181" lon="11.2059727"><ele>453.0</ele><time>2026-04-26T07:06:14.278Z</time></trkpt><trkpt lat="45.5092295" lon="11.206032"><ele>456.0</ele><time>2026-04-26T07:06:17.284Z</time></trkpt><trkpt lat="45.5092745" lon="11.206106"><ele>459.0</ele><time>2026-04-26T07:06:20.286Z</time></trkpt><trkpt lat="45.5093225" lon="11.2061813"><ele>462.0</ele><time>2026-04-26T07:06:23.282Z</time></trkpt><trkpt lat="45.5093839" lon="11.206255"><ele>465.0</ele><time>2026-04-26T07:06:26.287Z</time></trkpt><trkpt lat="45.5094653" lon="11.2063248"><ele>468.0</ele><time>2026-04-26T07:06:29.282Z</time></trkpt><trkpt lat="45.5095349" lon="11.2063488"><ele>472.1666666666667</ele><time>2026-04-26T07:06:31.29Z</time></trkpt><trkpt lat="45.5096039" lon="11.2063521"><ele>476.33333333333337</ele><time>2026-04-26T07:06:33.28Z</time></trkpt><trkpt lat="45.5096669" lon="11.2063217"><ele>480.5</ele><time>2026-04-26T07:06:35.292Z</time></trkpt><trkpt lat="45.5097245" lon="11.2062181"><ele>484.6666666666667</ele><time>2026-04-26T07:06:38.281Z</time></trkpt><trkpt lat="45.5097502" lon="11.2061002"><ele>488.83333333333337</ele><time>2026-04-26T07:06:41.286Z</time></trkpt><trkpt lat="45.5097579" lon="11.2059773"><ele>493.0</ele><time>2026-04-26T07:06:44.28Z</time></trkpt><trkpt lat="45.5097578" lon="11.205868"><ele>493.0</ele><time>2026-04-26T07:06:47.281Z</time></trkpt><trkpt lat="45.5097549" lon="11.2057779"><ele>493.0</ele><time>2026-04-26T07:06:50.285Z</time></trkpt><trkpt lat="45.5097754" lon="11.2056757"><ele>493.0</ele><time>2026-04-26T07:06:53.284Z</time></trkpt><trkpt lat="45.5098118" lon="11.2055791"><ele>493.0</ele><time>2026-04-26T07:06:56.279Z</time></trkpt><trkpt lat="45.5098365" lon="11.2054857"><ele>493.0</ele><time>2026-04-26T07:06:59.282Z</time></trkpt><trkpt lat="45.5098679" lon="11.2053821"><ele>493.0</ele><time>2026-04-26T07:07:03.29Z</time></trkpt><trkpt lat="45.5098932" lon="11.2052678"><ele>493.0</ele><time>2026-04-26T07:07:07.292Z</time></trkpt><trkpt lat="45.5099206" lon="11.2051775"><ele>492.1428571428571</ele><time>2026-04-26T07:07:10.279Z</time></trkpt><trkpt lat="45.5099533" lon="11.2050894"><ele>491.28571428571433</ele><time>2026-04-26T07:07:13.29Z</time></trkpt><trkpt lat="45.5099907" lon="11.205005"><ele>490.42857142857144</ele><time>2026-04-26T07:07:16.282Z</time></trkpt><trkpt lat="45.5100304" lon="11.2049098"><ele>489.57142857142856</ele><time>2026-04-26T07:07:20.289Z</time></trkpt><trkpt lat="45.5100689" lon="11.2048382"><ele>488.71428571428567</ele><time>2026-04-26T07:07:24.29Z</time></trkpt><trkpt lat="45.5101109" lon="11.2047488"><ele>487.8571428571429</ele><time>2026-04-26T07:07:28.287Z</time></trkpt><trkpt lat="45.51015" lon="11.2046761"><ele>487.0</ele><time>2026-04-26T07:07:32.284Z</time></trkpt><trkpt lat="45.5101971" lon="11.2045853"><ele>485.8571428571429</ele><time>2026-04-26T07:07:37.279Z</time></trkpt><trkpt lat="45.5102419" lon="11.2045124"><ele>484.71428571428567</ele><time>2026-04-26T07:07:41.278Z</time></trkpt><trkpt lat="45.510295" lon="11.2044495"><ele>483.57142857142856</ele><time>2026-04-26T07:07:45.276Z</time></trkpt><trkpt lat="45.5103491" lon="11.2043818"><ele>482.42857142857144</ele><time>2026-04-26T07:07:49.288Z</time></trkpt><trkpt lat="45.5104145" lon="11.2043087"><ele>481.28571428571433</ele><time>2026-04-26T07:07:53.282Z</time></trkpt><trkpt lat="45.5104628" lon="11.2042437"><ele>480.1428571428571</ele><time>2026-04-26T07:07:56.283Z</time></trkpt><trkpt lat="45.5105245" lon="11.2041723"><ele>479.0</ele><time>2026-04-26T07:08:00.283Z</time></trkpt><trkpt lat="45.5105863" lon="11.2040988"><ele>479.8333333333333</ele><time>2026-04-26T07:08:04.277Z</time></trkpt><trkpt lat="45.5106473" lon="11.2040222"><ele>480.66666666666663</ele><time>2026-04-26T07:08:08.285Z</time></trkpt><trkpt lat="45.5107193" lon="11.2039815"><ele>481.5</ele><time>2026-04-26T07:08:12.285Z</time></trkpt><trkpt lat="45.5108013" lon="11.2039801"><ele>482.33333333333337</ele><time>2026-04-26T07:08:16.281Z</time></trkpt><trkpt lat="45.5108691" lon="11.203971"><ele>483.1666666666667</ele><time>2026-04-26T07:08:19.285Z</time></trkpt><trkpt lat="45.5109483" lon="11.203967"><ele>484.0</ele><time>2026-04-26T07:08:21.287Z</time></trkpt><trkpt lat="45.5110197" lon="11.2039464"><ele>484.0</ele><time>2026-04-26T07:08:23.295Z</time></trkpt><trkpt lat="45.5111015" lon="11.2039219"><ele>484.0</ele><time>2026-04-26T07:08:25.278Z</time></trkpt><trkpt lat="45.5111884" lon="11.2039036"><ele>484.0</ele><time>2026-04-26T07:08:27.286Z</time></trkpt><trkpt lat="45.5112751" lon="11.2038751"><ele>484.0</ele><time>2026-04-26T07:08:29.292Z</time></trkpt><trkpt lat="45.5113685" lon="11.2038468"><ele>484.0</ele><time>2026-04-26T07:08:31.297Z</time></trkpt><trkpt lat="45.5114692" lon="11.2038546"><ele>488.50000000000006</ele><time>2026-04-26T07:08:33.291Z</time></trkpt><trkpt lat="45.5115598" lon="11.203855"><ele>493.0</ele><time>2026-04-26T07:08:35.289Z</time></trkpt><trkpt lat="45.5116455" lon="11.203858"><ele>497.5</ele><time>2026-04-26T07:08:37.293Z</time></trkpt><trkpt lat="45.5117232" lon="11.2037971"><ele>502.0</ele><time>2026-04-26T07:08:40.28Z</time></trkpt><trkpt lat="45.5117774" lon="11.203698"><ele>506.50000000000006</ele><time>2026-04-26T07:08:43.29Z</time></trkpt><trkpt lat="45.5118393" lon="11.203614"><ele>511.0</ele><time>2026-04-26T07:08:46.286Z</time></trkpt><trkpt lat="45.5119187" lon="11.2035612"><ele>511.00000000000006</ele><time>2026-04-26T07:08:49.296Z</time></trkpt><trkpt lat="45.5120051" lon="11.2035283"><ele>511.0</ele><time>2026-04-26T07:08:52.293Z</time></trkpt><trkpt lat="45.5120922" lon="11.2035192"><ele>511.0</ele><time>2026-04-26T07:08:55.284Z</time></trkpt><trkpt lat="45.5121793" lon="11.2035099"><ele>511.0</ele><time>2026-04-26T07:08:58.299Z</time></trkpt><trkpt lat="45.5122654" lon="11.2034973"><ele>511.00000000000006</ele><time>2026-04-26T07:09:01.289Z</time></trkpt><trkpt lat="45.5123541" lon="11.2034754"><ele>511.0</ele><time>2026-04-26T07:09:04.292Z</time></trkpt><trkpt lat="45.5124476" lon="11.2034444"><ele>514.1666666666667</ele><time>2026-04-26T07:09:07.291Z</time></trkpt><trkpt lat="45.5125173" lon="11.2034219"><ele>517.3333333333334</ele><time>2026-04-26T07:09:09.295Z</time></trkpt><trkpt lat="45.5125929" lon="11.2033986"><ele>520.5</ele><time>2026-04-26T07:09:11.284Z</time></trkpt><trkpt lat="45.5126729" lon="11.2033741"><ele>523.6666666666666</ele><time>2026-04-26T07:09:13.3Z</time></trkpt><trkpt lat="45.5127616" lon="11.2033564"><ele>526.8333333333333</ele><time>2026-04-26T07:09:15.291Z</time></trkpt><trkpt lat="45.5128571" lon="11.2033402"><ele>530.0</ele><time>2026-04-26T07:09:17.287Z</time></trkpt><trkpt lat="45.5129583" lon="11.203323"><ele>530.75</ele><time>2026-04-26T07:09:19.291Z</time></trkpt><trkpt lat="45.5130636" lon="11.2033155"><ele>531.5</ele><time>2026-04-26T07:09:21.3Z</time></trkpt><trkpt lat="45.5131765" lon="11.203341"><ele>532.25</ele><time>2026-04-26T07:09:23.281Z</time></trkpt><trkpt lat="45.5132927" lon="11.2033946"><ele>533.0</ele><time>2026-04-26T07:09:25.273Z</time></trkpt><trkpt lat="45.5134068" lon="11.2034508"><ele>533.0</ele><time>2026-04-26T07:09:27.302Z</time></trkpt><trkpt lat="45.5135198" lon="11.2035056"><ele>533.0</ele><time>2026-04-26T07:09:29.286Z</time></trkpt><trkpt lat="45.5136249" lon="11.2035619"><ele>533.0</ele><time>2026-04-26T07:09:31.273Z</time></trkpt><trkpt lat="45.5137203" lon="11.2036331"><ele>533.0</ele><time>2026-04-26T07:09:33.287Z</time></trkpt><trkpt lat="45.5138038" lon="11.2037181"><ele>533.0</ele><time>2026-04-26T07:09:35.301Z</time></trkpt><trkpt lat="45.5138701" lon="11.203819"><ele>534.5</ele><time>2026-04-26T07:09:37.292Z</time></trkpt><trkpt lat="45.5139307" lon="11.2039217"><ele>536.0</ele><time>2026-04-26T07:09:39.276Z</time></trkpt><trkpt lat="45.5139797" lon="11.2040306"><ele>537.5</ele><time>2026-04-26T07:09:41.295Z</time></trkpt><trkpt lat="45.5140216" lon="11.2041243"><ele>539.0</ele><time>2026-04-26T07:09:43.294Z</time></trkpt><trkpt lat="45.5140566" lon="11.2042155"><ele>540.5</ele><time>2026-04-26T07:09:45.283Z</time></trkpt><trkpt lat="45.5140973" lon="11.2042909"><ele>542.0</ele><time>2026-04-26T07:09:47.29Z</time></trkpt><trkpt lat="45.514145" lon="11.204359"><ele>542.0</ele><time>2026-04-26T07:09:49.278Z</time></trkpt><trkpt lat="45.514223" lon="11.2044234"><ele>542.0</ele><time>2026-04-26T07:09:52.292Z</time></trkpt><trkpt lat="45.5142869" lon="11.2044264"><ele>542.0</ele><time>2026-04-26T07:09:54.29Z</time></trkpt><trkpt lat="45.5143654" lon="11.2044213"><ele>542.0</ele><time>2026-04-26T07:09:57.29Z</time></trkpt><trkpt lat="45.5144467" lon="11.2044075"><ele>542.0</ele><time>2026-04-26T07:10:00.305Z</time></trkpt><trkpt lat="45.5145305" lon="11.2044145"><ele>542.0</ele><time>2026-04-26T07:10:03.282Z</time></trkpt><trkpt lat="45.5146081" lon="11.2044401"><ele>542.0</ele><time>2026-04-26T07:10:06.313Z</time></trkpt><trkpt lat="45.5146849" lon="11.204474"><ele>542.0</ele><time>2026-04-26T07:10:09.289Z</time></trkpt><trkpt lat="45.514762" lon="11.2045165"><ele>542.0</ele><time>2026-04-26T07:10:12.288Z</time></trkpt><trkpt lat="45.5148447" lon="11.2045746"><ele>542.0</ele><time>2026-04-26T07:10:15.279Z</time></trkpt><trkpt lat="45.5149055" lon="11.2046202"><ele>542.0</ele><time>2026-04-26T07:10:17.289Z</time></trkpt><trkpt lat="45.5149741" lon="11.2046711"><ele>542.0</ele><time>2026-04-26T07:10:19.293Z</time></trkpt><trkpt lat="45.5150565" lon="11.204699"><ele>542.0</ele><time>2026-04-26T07:10:21.289Z</time></trkpt><trkpt lat="45.5151391" lon="11.2047349"><ele>542.0</ele><time>2026-04-26T07:10:23.288Z</time></trkpt><trkpt lat="45.5152273" lon="11.2047616"><ele>542.0</ele><time>2026-04-26T07:10:25.3Z</time></trkpt><trkpt lat="45.5153221" lon="11.204797"><ele>542.0</ele><time>2026-04-26T07:10:27.295Z</time></trkpt><trkpt lat="45.5154222" lon="11.2048414"><ele>542.0</ele><time>2026-04-26T07:10:29.288Z</time></trkpt><trkpt lat="45.5155279" lon="11.2048652"><ele>545.0</ele><time>2026-04-26T07:10:31.289Z</time></trkpt><trkpt lat="45.5156344" lon="11.2048857"><ele>548.0</ele><time>2026-04-26T07:10:33.284Z</time></trkpt><trkpt lat="45.5157372" lon="11.2049059"><ele>551.0</ele><time>2026-04-26T07:10:35.291Z</time></trkpt><trkpt lat="45.5158337" lon="11.2049227"><ele>554.0</ele><time>2026-04-26T07:10:37.287Z</time></trkpt><trkpt lat="45.5159297" lon="11.2049427"><ele>557.0</ele><time>2026-04-26T07:10:39.28Z</time></trkpt><trkpt lat="45.5160261" lon="11.2049653"><ele>557.0</ele><time>2026-04-26T07:10:41.28Z</time></trkpt><trkpt lat="45.5161239" lon="11.2049958"><ele>557.0</ele><time>2026-04-26T07:10:43.292Z</time></trkpt><trkpt lat="45.5162267" lon="11.2050356"><ele>557.0</ele><time>2026-04-26T07:10:45.29Z</time></trkpt><trkpt lat="45.5163314" lon="11.20508"><ele>557.0</ele><time>2026-04-26T07:10:47.282Z</time></trkpt><trkpt lat="45.5164391" lon="11.2051257"><ele>557.0</ele><time>2026-04-26T07:10:49.287Z</time></trkpt><trkpt lat="45.5165463" lon="11.2051742"><ele>556.2</ele><time>2026-04-26T07:10:51.294Z</time></trkpt><trkpt lat="45.5166547" lon="11.2052167"><ele>555.4000000000001</ele><time>2026-04-26T07:10:53.289Z</time></trkpt><trkpt lat="45.5167654" lon="11.2052595"><ele>554.5999999999999</ele><time>2026-04-26T07:10:55.284Z</time></trkpt><trkpt lat="45.5168735" lon="11.2052986"><ele>553.8</ele><time>2026-04-26T07:10:57.28Z</time></trkpt><trkpt lat="45.5169759" lon="11.2053285"><ele>553.0</ele><time>2026-04-26T07:10:59.291Z</time></trkpt><trkpt lat="45.5170711" lon="11.2053385"><ele>553.0</ele><time>2026-04-26T07:11:01.282Z</time></trkpt><trkpt lat="45.5171612" lon="11.2053361"><ele>553.0</ele><time>2026-04-26T07:11:03.284Z</time></trkpt><trkpt lat="45.5172431" lon="11.2053312"><ele>553.0</ele><time>2026-04-26T07:11:05.29Z</time></trkpt><trkpt lat="45.5173196" lon="11.205315"><ele>553.0</ele><time>2026-04-26T07:11:07.29Z</time></trkpt><trkpt lat="45.5173955" lon="11.2052953"><ele>553.0</ele><time>2026-04-26T07:11:09.29Z</time></trkpt><trkpt lat="45.5174723" lon="11.2052978"><ele>553.0</ele><time>2026-04-26T07:11:11.282Z</time></trkpt><trkpt lat="45.5175436" lon="11.2052965"><ele>553.0</ele><time>2026-04-26T07:11:13.299Z</time></trkpt><trkpt lat="45.5176117" lon="11.2052919"><ele>553.0</ele><time>2026-04-26T07:11:15.284Z</time></trkpt><trkpt lat="45.5176746" lon="11.2052969"><ele>553.0</ele><time>2026-04-26T07:11:17.288Z</time></trkpt><trkpt lat="45.517758" lon="11.2052958"><ele>553.0</ele><time>2026-04-26T07:11:20.28Z</time></trkpt><trkpt lat="45.5178405" lon="11.2053052"><ele>553.0</ele><time>2026-04-26T07:11:23.28Z</time></trkpt><trkpt lat="45.5179261" lon="11.2053149"><ele>553.0</ele><time>2026-04-26T07:11:26.29Z</time></trkpt><trkpt lat="45.518017" lon="11.2053387"><ele>553.4285714285714</ele><time>2026-04-26T07:11:29.278Z</time></trkpt><trkpt lat="45.5180801" lon="11.2053557"><ele>553.8571428571429</ele><time>2026-04-26T07:11:31.286Z</time></trkpt><trkpt lat="45.5181417" lon="11.2053757"><ele>554.2857142857142</ele><time>2026-04-26T07:11:33.286Z</time></trkpt><trkpt lat="45.518206" lon="11.2053942"><ele>554.7142857142858</ele><time>2026-04-26T07:11:35.289Z</time></trkpt><trkpt lat="45.5182706" lon="11.2054077"><ele>555.1428571428571</ele><time>2026-04-26T07:11:37.289Z</time></trkpt><trkpt lat="45.5183623" lon="11.2054276"><ele>555.5714285714286</ele><time>2026-04-26T07:11:40.291Z</time></trkpt><trkpt lat="45.518451" lon="11.2054412"><ele>556.0</ele><time>2026-04-26T07:11:43.3Z</time></trkpt><trkpt lat="45.5185379" lon="11.2054792"><ele>556.0</ele><time>2026-04-26T07:11:46.283Z</time></trkpt><trkpt lat="45.5186237" lon="11.2055067"><ele>556.0</ele><time>2026-04-26T07:11:49.289Z</time></trkpt><trkpt lat="45.5187029" lon="11.2055415"><ele>556.0</ele><time>2026-04-26T07:11:52.275Z</time></trkpt><trkpt lat="45.5187834" lon="11.2055865"><ele>556.0</ele><time>2026-04-26T07:11:55.295Z</time></trkpt><trkpt lat="45.5188577" lon="11.2056272"><ele>556.0</ele><time>2026-04-26T07:11:58.289Z</time></trkpt><trkpt lat="45.5189366" lon="11.2056624"><ele>556.0</ele><time>2026-04-26T07:12:01.293Z</time></trkpt><trkpt lat="45.5190124" lon="11.2056882"><ele>585.0</ele><time>2026-04-26T07:12:04.286Z</time></trkpt><trkpt lat="45.5190899" lon="11.2056833"><ele>585.0</ele><time>2026-04-26T07:12:07.292Z</time></trkpt><trkpt lat="45.5191587" lon="11.2056307"><ele>564.0</ele><time>2026-04-26T07:12:10.285Z</time></trkpt></trkseg></trk></gpx>